Observation data for McAdoo on 03/05/2021      Previous  Date  Next       Current Mesonet Observations  Soil Data  Daily Summary Page  Observations in Plain Language
KMC6 050600Z 29012KT 10/M05 A2993 RMK A01 T01031051  RH  033%=      5-min Rain = 0
KMC6 050601Z 29013KT 10/M05 A2993 RMK A01 T01031052  RH  033%=      5-min Rain = 0
KMC6 050602Z 29013KT 10/M05 A2993 RMK A01 T01011052  RH  034%=      5-min Rain = 0
KMC6 050603Z 29012KT 10/M05 A2993 RMK A01 T01011052  RH  034%=      5-min Rain = 0
KMC6 050604Z 29013KT 10/M05 A2993 RMK A01 T01001052  RH  034%=      5-min Rain = 0
KMC6 050605Z 29013KT 10/M05 A2993 RMK A01 T01001052  RH  034%=      5-min Rain = 0
KMC6 050606Z 29014KT 10/M05 A2993 RMK A01 T01011051  RH  034%=      5-min Rain = 0
KMC6 050607Z 29015KT 10/M05 A2992 RMK A01 T01031050  RH  034%=      5-min Rain = 0
KMC6 050608Z 29013KT 10/M05 A2992 RMK A01 T01031050  RH  034%=      5-min Rain = 0
KMC6 050609Z 29013KT 10/M05 A2992 RMK A01 T01031051  RH  033%=      5-min Rain = 0
KMC6 050610Z 29013KT 10/M05 A2992 RMK A01 T01021051  RH  034%=      5-min Rain = 0
KMC6 050611Z 30013KT 10/M05 A2992 RMK A01 T01021051  RH  034%=      5-min Rain = 0
KMC6 050612Z 30013KT 10/M05 A2992 RMK A01 T01011051  RH  034%=      5-min Rain = 0
KMC6 050613Z 30013KT 10/M05 A2992 RMK A01 T01001051  RH  034%=      5-min Rain = 0
KMC6 050614Z 30013KT 10/M05 A2992 RMK A01 T01001051  RH  034%=      5-min Rain = 0
KMC6 050615Z 30014KT 10/M05 A2992 RMK A01 T01001051  RH  034%=      5-min Rain = 0
KMC6 050616Z 30015KT 10/M05 A2992 RMK A01 T01011050  RH  034%=      5-min Rain = 0
KMC6 050617Z 30015KT 10/M05 A2993 RMK A01 T01021050  RH  034%=      5-min Rain = 0
KMC6 050618Z 30015KT 10/M05 A2993 RMK A01 T01021050  RH  034%=      5-min Rain = 0
KMC6 050619Z 30015KT 10/M05 A2993 RMK A01 T01021050  RH  034%=      5-min Rain = 0
KMC6 050620Z 30014KT 10/M05 A2993 RMK A01 T01011050  RH  034%=      5-min Rain = 0
KMC6 050621Z 30014KT 10/M05 A2993 RMK A01 T01011050  RH  034%=      5-min Rain = 0
KMC6 050622Z 30015KT 10/M05 A2993 RMK A01 T01011050  RH  034%=      5-min Rain = 0
KMC6 050623Z 30014KT 10/M05 A2993 RMK A01 T01001050  RH  034%=      5-min Rain = 0
KMC6 050624Z 30014KT 10/M05 A2993 RMK A01 T00991051  RH  034%=      5-min Rain = 0
KMC6 050625Z 30015KT 10/M05 A2993 RMK A01 T00991050  RH  035%=      5-min Rain = 0
KMC6 050626Z 30014KT 10/M05 A2993 RMK A01 T00991050  RH  035%=      5-min Rain = 0
KMC6 050627Z 30014KT 10/M05 A2993 RMK A01 T00991050  RH  035%=      5-min Rain = 0
KMC6 050628Z 30014KT 10/M05 A2993 RMK A01 T00981050  RH  035%=      5-min Rain = 0
KMC6 050629Z 31013KT 10/M05 A2993 RMK A01 T00981050  RH  035%=      5-min Rain = 0
KMC6 050630Z 31013KT 10/M05 A2993 RMK A01 T00981050  RH  035%=      5-min Rain = 0
KMC6 050631Z 31012KT 10/M05 A2992 RMK A01 T00971050  RH  035%=      5-min Rain = 0
KMC6 050632Z 30014KT 10/M05 A2992 RMK A01 T00961050  RH  035%=      5-min Rain = 0
KMC6 050633Z 30013KT 10/M05 A2993 RMK A01 T00961050  RH  035%=      5-min Rain = 0
KMC6 050634Z 31014KT 10/M05 A2993 RMK A01 T00961050  RH  035%=      5-min Rain = 0
KMC6 050635Z 31013KT 10/M05 A2993 RMK A01 T00961050  RH  035%=      5-min Rain = 0
KMC6 050636Z 30013KT 10/M05 A2993 RMK A01 T00961050  RH  035%=      5-min Rain = 0
KMC6 050637Z 30013KT 10/M05 A2993 RMK A01 T00951050  RH  036%=      5-min Rain = 0
KMC6 050638Z 30013KT 09/M05 A2993 RMK A01 T00941051  RH  036%=      5-min Rain = 0
KMC6 050639Z 30013KT 09/M05 A2993 RMK A01 T00931051  RH  036%=      5-min Rain = 0
KMC6 050640Z 30013KT 09/M05 A2993 RMK A01 T00931051  RH  036%=      5-min Rain = 0
KMC6 050641Z 30014KT 09/M05 A2993 RMK A01 T00931050  RH  036%=      5-min Rain = 0
KMC6 050642Z 30013KT 09/M05 A2993 RMK A01 T00931050  RH  036%=      5-min Rain = 0
KMC6 050643Z 30014KT 09/M05 A2993 RMK A01 T00931050  RH  036%=      5-min Rain = 0
KMC6 050644Z 30013KT 09/M05 A2992 RMK A01 T00931050  RH  036%=      5-min Rain = 0
KMC6 050645Z 30014KT 09/M05 A2992 RMK A01 T00921050  RH  036%=      5-min Rain = 0
KMC6 050646Z 30013KT 09/M05 A2992 RMK A01 T00911050  RH  036%=      5-min Rain = 0
KMC6 050647Z 30014KT 09/M05 A2992 RMK A01 T00911050  RH  036%=      5-min Rain = 0
KMC6 050648Z 30014KT 09/M05 A2992 RMK A01 T00911050  RH  036%=      5-min Rain = 0
KMC6 050649Z 30013KT 09/M05 A2992 RMK A01 T00911050  RH  036%=      5-min Rain = 0
KMC6 050650Z 30013KT 09/M05 A2992 RMK A01 T00911050  RH  036%=      5-min Rain = 0
KMC6 050651Z 30013G18KT 09/M05 A2992 RMK A01 T00911050  RH  037%=      5-min Rain = 0
KMC6 050652Z 30013KT 09/M05 A2992 RMK A01 T00901051  RH  037%=      5-min Rain = 0
KMC6 050653Z 30013KT 09/M05 A2992 RMK A01 T00891051  RH  037%=      5-min Rain = 0
KMC6 050654Z 30014KT 09/M05 A2992 RMK A01 T00881051  RH  037%=      5-min Rain = 0
KMC6 050655Z 30014KT 09/M05 A2992 RMK A01 T00891050  RH  037%=      5-min Rain = 0
KMC6 050656Z 30014KT 09/M05 A2992 RMK A01 T00891050  RH  037%=      5-min Rain = 0
KMC6 050657Z 30014KT 09/M05 A2992 RMK A01 T00891051  RH  037%=      5-min Rain = 0
KMC6 050658Z 30014KT 09/M05 A2992 RMK A01 T00891050  RH  037%=      5-min Rain = 0
KMC6 050659Z 30014KT 09/M05 A2992 RMK A01 T00891050  RH  037%=      5-min Rain = 0
KMC6 050700Z 30015KT 09/M05 A2992 RMK A01 T00891050  RH  037%=      5-min Rain = 0
KMC6 050701Z 30014KT 09/M05 A2992 RMK A01 T00891050  RH  037%=      5-min Rain = 0
KMC6 050702Z 30015KT 09/M05 A2992 RMK A01 T00891050  RH  037%=      5-min Rain = 0
KMC6 050703Z 30014KT 09/M05 A2992 RMK A01 T00891050  RH  037%=      5-min Rain = 0
KMC6 050704Z 30015KT 09/M05 A2992 RMK A01 T00891050  RH  037%=      5-min Rain = 0
KMC6 050705Z 30015KT 09/M05 A2992 RMK A01 T00891050  RH  037%=      5-min Rain = 0
KMC6 050706Z 30015KT 09/M05 A2992 RMK A01 T00891050  RH  037%=      5-min Rain = 0
KMC6 050707Z 30016KT 09/M05 A2992 RMK A01 T00891050  RH  037%=      5-min Rain = 0
KMC6 050708Z 30015KT 09/M05 A2992 RMK A01 T00901050  RH  037%=      5-min Rain = 0
KMC6 050709Z 30014KT 09/M05 A2992 RMK A01 T00901050  RH  037%=      5-min Rain = 0
KMC6 050710Z 30014KT 09/M05 A2992 RMK A01 T00891051  RH  037%=      5-min Rain = 0
KMC6 050711Z 30014KT 09/M05 A2992 RMK A01 T00881051  RH  037%=      5-min Rain = 0
KMC6 050712Z 30013KT 09/M05 A2992 RMK A01 T00871051  RH  037%=      5-min Rain = 0
KMC6 050713Z 30013KT 09/M05 A2992 RMK A01 T00861051  RH  037%=      5-min Rain = 0
KMC6 050714Z 30013KT 09/M05 A2992 RMK A01 T00851052  RH  038%=      5-min Rain = 0
KMC6 050715Z 30013KT 09/M05 A2992 RMK A01 T00851051  RH  038%=      5-min Rain = 0
KMC6 050716Z 30013KT 08/M05 A2992 RMK A01 T00841052  RH  038%=      5-min Rain = 0
KMC6 050717Z 30013KT 08/M05 A2992 RMK A01 T00841052  RH  038%=      5-min Rain = 0
KMC6 050718Z 30013KT 08/M05 A2992 RMK A01 T00831052  RH  038%=      5-min Rain = 0
KMC6 050719Z 30013KT 08/M05 A2992 RMK A01 T00831052  RH  038%=      5-min Rain = 0
KMC6 050720Z 30013KT 08/M05 A2992 RMK A01 T00821052  RH  038%=      5-min Rain = 0
KMC6 050721Z 30014KT 08/M05 A2992 RMK A01 T00821051  RH  038%=      5-min Rain = 0
KMC6 050722Z 30015KT 08/M05 A2992 RMK A01 T00831051  RH  038%=      5-min Rain = 0
KMC6 050723Z 30015KT 08/M05 A2992 RMK A01 T00831051  RH  038%=      5-min Rain = 0
KMC6 050724Z 30015KT 08/M05 A2992 RMK A01 T00841050  RH  038%=      5-min Rain = 0
KMC6 050725Z 30015G20KT 08/M05 A2992 RMK A01 T00831051  RH  038%=      5-min Rain = 0
KMC6 050726Z 31015KT 08/M05 A2992 RMK A01 T00841050  RH  038%=      5-min Rain = 0
KMC6 050727Z 31016KT 08/M05 A2992 RMK A01 T00841051  RH  038%=      5-min Rain = 0
KMC6 050728Z 31016G21KT 09/M05 A2992 RMK A01 T00851051  RH  038%=      5-min Rain = 0
KMC6 050729Z 31017KT 09/M05 A2992 RMK A01 T00851050  RH  038%=      5-min Rain = 0
KMC6 050730Z 31017KT 09/M05 A2992 RMK A01 T00861050  RH  038%=      5-min Rain = 0
KMC6 050731Z 31018KT 09/M05 A2992 RMK A01 T00871050  RH  038%=      5-min Rain = 0
KMC6 050732Z 31017KT 09/M05 A2992 RMK A01 T00871050  RH  038%=      5-min Rain = 0
KMC6 050733Z 31016KT 09/M05 A2992 RMK A01 T00871050  RH  037%=      5-min Rain = 0
KMC6 050734Z 31015G20KT 09/M05 A2992 RMK A01 T00861051  RH  038%=      5-min Rain = 0
KMC6 050735Z 31015KT 09/M05 A2992 RMK A01 T00851051  RH  038%=      5-min Rain = 0
KMC6 050736Z 31015KT 08/M05 A2992 RMK A01 T00841051  RH  038%=      5-min Rain = 0
KMC6 050737Z 31014KT 08/M05 A2992 RMK A01 T00841051  RH  038%=      5-min Rain = 0
KMC6 050738Z 31014KT 08/M05 A2992 RMK A01 T00831051  RH  038%=      5-min Rain = 0
KMC6 050739Z 31013KT 08/M05 A2992 RMK A01 T00831050  RH  038%=      5-min Rain = 0
KMC6 050740Z 31013KT 08/M05 A2992 RMK A01 T00821051  RH  039%=      5-min Rain = 0
KMC6 050741Z 31014KT 08/M05 A2992 RMK A01 T00811051  RH  039%=      5-min Rain = 0
KMC6 050742Z 31014KT 08/M05 A2992 RMK A01 T00811050  RH  039%=      5-min Rain = 0
KMC6 050743Z 31014KT 08/M05 A2992 RMK A01 T00811050  RH  039%=      5-min Rain = 0
KMC6 050744Z 31014KT 08/M05 A2992 RMK A01 T00801050  RH  039%=      5-min Rain = 0
KMC6 050745Z 31014KT 08/M05 A2992 RMK A01 T00791050  RH  039%=      5-min Rain = 0
KMC6 050746Z 31015G20KT 08/M05 A2992 RMK A01 T00791050  RH  040%=      5-min Rain = 0
KMC6 050747Z 31014KT 08/M05 A2992 RMK A01 T00791050  RH  040%=      5-min Rain = 0
KMC6 050748Z 31015KT 08/M05 A2992 RMK A01 T00791050  RH  040%=      5-min Rain = 0
KMC6 050749Z 31014KT 08/M05 A2992 RMK A01 T00781050  RH  040%=      5-min Rain = 0
KMC6 050750Z 31015KT 08/M05 A2992 RMK A01 T00781051  RH  040%=      5-min Rain = 0
KMC6 050751Z 31014KT 08/M05 A2992 RMK A01 T00781050  RH  040%=      5-min Rain = 0
KMC6 050752Z 31014KT 08/M05 A2992 RMK A01 T00781050  RH  040%=      5-min Rain = 0
KMC6 050753Z 31014KT 08/M05 A2992 RMK A01 T00771050  RH  040%=      5-min Rain = 0
KMC6 050754Z 31013KT 08/M05 A2992 RMK A01 T00761051  RH  040%=      5-min Rain = 0
KMC6 050755Z 30013KT 08/M05 A2992 RMK A01 T00761050  RH  040%=      5-min Rain = 0
KMC6 050756Z 30013KT 08/M05 A2992 RMK A01 T00761050  RH  040%=      5-min Rain = 0
KMC6 050757Z 30013KT 08/M05 A2992 RMK A01 T00751051  RH  041%=      5-min Rain = 0
KMC6 050758Z 30013KT 08/M05 A2992 RMK A01 T00751050  RH  041%=      5-min Rain = 0
KMC6 050759Z 30012KT 08/M05 A2992 RMK A01 T00751050  RH  041%=      5-min Rain = 0
KMC6 050800Z 31011KT 08/M05 A2992 RMK A01 T00751050  RH  041%=      5-min Rain = 0
KMC6 050801Z 31012KT 07/M05 A2992 RMK A01 T00741050  RH  041%=      5-min Rain = 0
KMC6 050802Z 31012KT 07/M05 A2992 RMK A01 T00741049  RH  041%=      5-min Rain = 0
KMC6 050803Z 31012KT 07/M05 A2992 RMK A01 T00741049  RH  041%=      5-min Rain = 0
KMC6 050804Z 31012KT 07/M05 A2992 RMK A01 T00741048  RH  042%=      5-min Rain = 0
KMC6 050805Z 31013KT 07/M05 A2993 RMK A01 T00741047  RH  042%=      5-min Rain = 0
KMC6 050806Z 31013KT 08/M05 A2993 RMK A01 T00751045  RH  042%=      5-min Rain = 0
KMC6 050807Z 31015KT 08/M04 A2993 RMK A01 T00761044  RH  042%=      5-min Rain = 0
KMC6 050808Z 32015KT 08/M04 A2993 RMK A01 T00781043  RH  042%=      5-min Rain = 0
KMC6 050809Z 32017KT 08/M04 A2992 RMK A01 T00781043  RH  042%=      5-min Rain = 0
KMC6 050810Z 32016G21KT 08/M04 A2992 RMK A01 T00791042  RH  042%=      5-min Rain = 0
KMC6 050811Z 32016KT 08/M04 A2992 RMK A01 T00791041  RH  042%=      5-min Rain = 0
KMC6 050812Z 32017G22KT 08/M04 A2992 RMK A01 T00791041  RH  042%=      5-min Rain = 0
KMC6 050813Z 32017KT 08/M04 A2993 RMK A01 T00791040  RH  043%=      5-min Rain = 0
KMC6 050814Z 32018KT 08/M04 A2993 RMK A01 T00781039  RH  043%=      5-min Rain = 0
KMC6 050815Z 32018KT 08/M04 A2993 RMK A01 T00791038  RH  043%=      5-min Rain = 0
KMC6 050816Z 32018G23KT 08/M04 A2993 RMK A01 T00791038  RH  043%=      5-min Rain = 0
KMC6 050817Z 32018KT 08/M04 A2993 RMK A01 T00801038  RH  043%=      5-min Rain = 0
KMC6 050818Z 32016KT 08/M04 A2993 RMK A01 T00801038  RH  043%=      5-min Rain = 0
KMC6 050819Z 32016KT 08/M04 A2993 RMK A01 T00791038  RH  043%=      5-min Rain = 0
KMC6 050820Z 32016KT 08/M04 A2993 RMK A01 T00781038  RH  044%=      5-min Rain = 0
KMC6 050821Z 32016KT 08/M04 A2993 RMK A01 T00781038  RH  044%=      5-min Rain = 0
KMC6 050822Z 32016KT 08/M04 A2993 RMK A01 T00771038  RH  044%=      5-min Rain = 0
KMC6 050823Z 32016KT 08/M04 A2993 RMK A01 T00771037  RH  044%=      5-min Rain = 0
KMC6 050824Z 32016KT 08/M04 A2993 RMK A01 T00771037  RH  044%=      5-min Rain = 0
KMC6 050825Z 31015KT 08/M04 A2993 RMK A01 T00771037  RH  044%=      5-min Rain = 0
KMC6 050826Z 31017KT 08/M04 A2993 RMK A01 T00771037  RH  044%=      5-min Rain = 0
KMC6 050827Z 31016KT 08/M04 A2993 RMK A01 T00781036  RH  044%=      5-min Rain = 0
KMC6 050828Z 31016KT 08/M04 A2994 RMK A01 T00781036  RH  044%=      5-min Rain = 0
KMC6 050829Z 31016KT 08/M04 A2994 RMK A01 T00781037  RH  044%=      5-min Rain = 0
KMC6 050830Z 31016G21KT 08/M04 A2994 RMK A01 T00781037  RH  044%=      5-min Rain = 0
KMC6 050831Z 31016G22KT 08/M04 A2994 RMK A01 T00771037  RH  044%=      5-min Rain = 0
KMC6 050832Z 31016KT 08/M04 A2994 RMK A01 T00771038  RH  044%=      5-min Rain = 0
KMC6 050833Z 31016KT 08/M04 A2994 RMK A01 T00761038  RH  044%=      5-min Rain = 0
KMC6 050834Z 31015KT 08/M04 A2994 RMK A01 T00761038  RH  044%=      5-min Rain = 0
KMC6 050835Z 31015KT 08/M04 A2994 RMK A01 T00751038  RH  044%=      5-min Rain = 0
KMC6 050836Z 31014KT 07/M04 A2994 RMK A01 T00741038  RH  045%=      5-min Rain = 0
KMC6 050837Z 31017G22KT 07/M04 A2994 RMK A01 T00741037  RH  045%=      5-min Rain = 0
KMC6 050838Z 31016KT 07/M04 A2994 RMK A01 T00741037  RH  045%=      5-min Rain = 0
KMC6 050839Z 31016KT 08/M04 A2994 RMK A01 T00751036  RH  045%=      5-min Rain = 0
KMC6 050840Z 31015KT 08/M04 A2994 RMK A01 T00751036  RH  045%=      5-min Rain = 0
KMC6 050841Z 31015KT 08/M04 A2994 RMK A01 T00751036  RH  045%=      5-min Rain = 0
KMC6 050842Z 31015KT 08/M04 A2994 RMK A01 T00751036  RH  045%=      5-min Rain = 0
KMC6 050843Z 31014KT 07/M04 A2994 RMK A01 T00741036  RH  046%=      5-min Rain = 0
KMC6 050844Z 31014KT 07/M04 A2994 RMK A01 T00731036  RH  046%=      5-min Rain = 0
KMC6 050845Z 31015KT 07/M03 A2994 RMK A01 T00731034  RH  046%=      5-min Rain = 0
KMC6 050846Z 31014KT 07/M03 A2994 RMK A01 T00731034  RH  047%=      5-min Rain = 0
KMC6 050847Z 31015KT 07/M03 A2994 RMK A01 T00731034  RH  047%=      5-min Rain = 0
KMC6 050848Z 31014KT 07/M03 A2994 RMK A01 T00731033  RH  047%=      5-min Rain = 0
KMC6 050849Z 32013KT 07/M03 A2995 RMK A01 T00731033  RH  047%=      5-min Rain = 0
KMC6 050850Z 31015KT 07/M03 A2995 RMK A01 T00721033  RH  047%=      5-min Rain = 0
KMC6 050851Z 31014G19KT 07/M03 A2995 RMK A01 T00721032  RH  048%=      5-min Rain = 0
KMC6 050852Z 32013KT 07/M03 A2995 RMK A01 T00721032  RH  048%=      5-min Rain = 0
KMC6 050853Z 31014KT 07/M03 A2995 RMK A01 T00711032  RH  048%=      5-min Rain = 0
KMC6 050854Z 32014KT 07/M03 A2995 RMK A01 T00711031  RH  048%=      5-min Rain = 0
KMC6 050855Z 32015KT 07/M03 A2994 RMK A01 T00711030  RH  048%=      5-min Rain = 0
KMC6 050856Z 32015KT 07/M03 A2994 RMK A01 T00711030  RH  049%=      5-min Rain = 0
KMC6 050857Z 31014KT 07/M03 A2994 RMK A01 T00711030  RH  049%=      5-min Rain = 0
KMC6 050858Z 32013KT 07/M03 A2994 RMK A01 T00711029  RH  049%=      5-min Rain = 0
KMC6 050859Z 32013KT 07/M03 A2994 RMK A01 T00711030  RH  049%=      5-min Rain = 0
KMC6 050900Z 32015KT 07/M03 A2994 RMK A01 T00701030  RH  049%=      5-min Rain = 0
KMC6 050901Z 32014KT 07/M03 A2994 RMK A01 T00701029  RH  049%=      5-min Rain = 0
KMC6 050902Z 32014KT 07/M03 A2994 RMK A01 T00701029  RH  049%=      5-min Rain = 0
KMC6 050903Z 32013KT 07/M03 A2994 RMK A01 T00691029  RH  050%=      5-min Rain = 0
KMC6 050904Z 32013KT 07/M03 A2994 RMK A01 T00691029  RH  050%=      5-min Rain = 0
KMC6 050905Z 32014G19KT 07/M03 A2994 RMK A01 T00681028  RH  050%=      5-min Rain = 0
KMC6 050906Z 32014G19KT 07/M03 A2994 RMK A01 T00681027  RH  051%=      5-min Rain = 0
KMC6 050907Z 32015KT 07/M03 A2994 RMK A01 T00681027  RH  051%=      5-min Rain = 0
KMC6 050908Z 32015KT 07/M03 A2994 RMK A01 T00681026  RH  051%=      5-min Rain = 0
KMC6 050909Z 32014KT 07/M03 A2994 RMK A01 T00691025  RH  051%=      5-min Rain = 0
KMC6 050910Z 31014KT 07/M03 A2994 RMK A01 T00691025  RH  051%=      5-min Rain = 0
KMC6 050911Z 32015KT 07/M03 A2994 RMK A01 T00681025  RH  051%=      5-min Rain = 0
KMC6 050912Z 32014KT 07/M03 A2994 RMK A01 T00681025  RH  052%=      5-min Rain = 0
KMC6 050913Z 32015KT 07/M02 A2994 RMK A01 T00671024  RH  052%=      5-min Rain = 0
KMC6 050914Z 32014G19KT 07/M02 A2994 RMK A01 T00681023  RH  052%=      5-min Rain = 0
KMC6 050915Z 32015G20KT 07/M02 A2994 RMK A01 T00681023  RH  052%=      5-min Rain = 0
KMC6 050916Z 31015KT 07/M02 A2994 RMK A01 T00691021  RH  053%=      5-min Rain = 0
KMC6 050917Z 31014KT 07/M02 A2994 RMK A01 T00701022  RH  052%=      5-min Rain = 0
KMC6 050918Z 31014KT 07/M02 A2994 RMK A01 T00691022  RH  052%=      5-min Rain = 0
KMC6 050919Z 31015KT 07/M02 A2994 RMK A01 T00681022  RH  053%=      5-min Rain = 0
KMC6 050920Z 31016KT 07/M02 A2994 RMK A01 T00681021  RH  053%=      5-min Rain = 0
KMC6 050921Z 31015G21KT 07/M02 A2994 RMK A01 T00691020  RH  053%=      5-min Rain = 0
KMC6 050922Z 31015KT 07/M02 A2994 RMK A01 T00691020  RH  053%=      5-min Rain = 0
KMC6 050923Z 31015G20KT 07/M02 A2994 RMK A01 T00691019  RH  053%=      5-min Rain = 0
KMC6 050924Z 31016KT 07/M02 A2994 RMK A01 T00691019  RH  053%=      5-min Rain = 0
KMC6 050925Z 31016KT 07/M02 A2994 RMK A01 T00691018  RH  054%=      5-min Rain = 0
KMC6 050926Z 31016KT 07/M02 A2994 RMK A01 T00701018  RH  054%=      5-min Rain = 0
KMC6 050927Z 31016KT 07/M02 A2994 RMK A01 T00701017  RH  054%=      5-min Rain = 0
KMC6 050928Z 31017KT 07/M02 A2994 RMK A01 T00701017  RH  054%=      5-min Rain = 0
KMC6 050929Z 31016KT 07/M02 A2994 RMK A01 T00711016  RH  054%=      5-min Rain = 0
KMC6 050930Z 31017KT 07/M02 A2994 RMK A01 T00711016  RH  054%=      5-min Rain = 0
KMC6 050931Z 31016KT 07/M02 A2994 RMK A01 T00711016  RH  054%=      5-min Rain = 0
KMC6 050932Z 31016G22KT 07/M02 A2994 RMK A01 T00711016  RH  054%=      5-min Rain = 0
KMC6 050933Z 31016G24KT 07/M02 A2994 RMK A01 T00711015  RH  054%=      5-min Rain = 0
KMC6 050934Z 31016KT 07/M01 A2994 RMK A01 T00711014  RH  054%=      5-min Rain = 0
KMC6 050935Z 31016KT 07/M01 A2994 RMK A01 T00711014  RH  054%=      5-min Rain = 0
KMC6 050936Z 31017KT 07/M01 A2994 RMK A01 T00711014  RH  055%=      5-min Rain = 0
KMC6 050937Z 31017KT 07/M01 A2994 RMK A01 T00721013  RH  055%=      5-min Rain = 0
KMC6 050938Z 31015KT 07/M01 A2994 RMK A01 T00721012  RH  055%=      5-min Rain = 0
KMC6 050939Z 31014KT 07/M01 A2994 RMK A01 T00721013  RH  055%=      5-min Rain = 0
KMC6 050940Z 31016G22KT 07/M01 A2994 RMK A01 T00701014  RH  055%=      5-min Rain = 0
KMC6 050941Z 31016KT 07/M01 A2994 RMK A01 T00701013  RH  056%=      5-min Rain = 0
KMC6 050942Z 31014KT 07/M01 A2994 RMK A01 T00711013  RH  055%=      5-min Rain = 0
KMC6 050943Z 31015KT 07/M01 A2994 RMK A01 T00701013  RH  056%=      5-min Rain = 0
KMC6 050944Z 31015KT 07/M01 A2994 RMK A01 T00701012  RH  056%=      5-min Rain = 0
KMC6 050945Z 31015G20KT 07/M01 A2994 RMK A01 T00701012  RH  056%=      5-min Rain = 0
KMC6 050946Z 31015G20KT 07/M01 A2994 RMK A01 T00701011  RH  056%=      5-min Rain = 0
KMC6 050947Z 31015KT 07/M01 A2994 RMK A01 T00701011  RH  056%=      5-min Rain = 0
KMC6 050948Z 32014KT 07/M01 A2994 RMK A01 T00701011  RH  056%=      5-min Rain = 0
KMC6 050949Z 31015KT 07/M01 A2994 RMK A01 T00701011  RH  056%=      5-min Rain = 0
KMC6 050950Z 31015KT 07/M01 A2994 RMK A01 T00701011  RH  057%=      5-min Rain = 0
KMC6 050951Z 31015KT 07/M01 A2994 RMK A01 T00701010  RH  057%=      5-min Rain = 0
KMC6 050952Z 31014KT 07/M01 A2995 RMK A01 T00701010  RH  057%=      5-min Rain = 0
KMC6 050953Z 31015KT 07/M01 A2995 RMK A01 T00701010  RH  057%=      5-min Rain = 0
KMC6 050954Z 31016KT 07/M01 A2995 RMK A01 T00691010  RH  057%=      5-min Rain = 0
KMC6 050955Z 31015KT 07/M01 A2995 RMK A01 T00691010  RH  057%=      5-min Rain = 0
KMC6 050956Z 31014KT 07/M01 A2995 RMK A01 T00691010  RH  057%=      5-min Rain = 0
KMC6 050957Z 31016KT 07/M01 A2995 RMK A01 T00681009  RH  058%=      5-min Rain = 0
KMC6 050958Z 31016KT 07/M01 A2994 RMK A01 T00681009  RH  058%=      5-min Rain = 0
KMC6 050959Z 31015KT 07/M01 A2994 RMK A01 T00691008  RH  058%=      5-min Rain = 0
KMC6 051000Z 31015G20KT 07/M01 A2994 RMK A01 T00691008  RH  058%=      5-min Rain = 0
KMC6 051001Z 31015G21KT 07/M01 A2994 RMK A01 T00691008  RH  058%=      5-min Rain = 0
KMC6 051002Z 31016KT 07/M01 A2994 RMK A01 T00691007  RH  058%=      5-min Rain = 0
KMC6 051003Z 31016KT 07/M01 A2994 RMK A01 T00691007  RH  058%=      5-min Rain = 0
KMC6 051004Z 31016KT 07/M01 A2994 RMK A01 T00691007  RH  059%=      5-min Rain = 0
KMC6 051005Z 31017KT 07/M01 A2994 RMK A01 T00691006  RH  059%=      5-min Rain = 0
KMC6 051006Z 31018KT 07/M01 A2994 RMK A01 T00701005  RH  059%=      5-min Rain = 0
KMC6 051007Z 31016KT 07/M01 A2994 RMK A01 T00711005  RH  059%=      5-min Rain = 0
KMC6 051008Z 31016KT 07/M01 A2994 RMK A01 T00711005  RH  059%=      5-min Rain = 0
KMC6 051009Z 31018G23KT 07/M00 A2994 RMK A01 T00711004  RH  059%=      5-min Rain = 0
KMC6 051010Z 31019G24KT 07/M00 A2994 RMK A01 T00711004  RH  059%=      5-min Rain = 0
KMC6 051011Z 31017KT 07/M00 A2994 RMK A01 T00721003  RH  059%=      5-min Rain = 0
KMC6 051012Z 31019KT 07/M00 A2994 RMK A01 T00731003  RH  059%=      5-min Rain = 0
KMC6 051013Z 31019KT 07/M00 A2994 RMK A01 T00731003  RH  059%=      5-min Rain = 0
KMC6 051014Z 31017G22KT 07/M00 A2994 RMK A01 T00741003  RH  058%=      5-min Rain = 0
KMC6 051015Z 31018G23KT 07/M00 A2994 RMK A01 T00741003  RH  058%=      5-min Rain = 0
KMC6 051016Z 31016G22KT 07/M00 A2995 RMK A01 T00741003  RH  058%=      5-min Rain = 0
KMC6 051017Z 31016G21KT 07/M00 A2995 RMK A01 T00731003  RH  059%=      5-min Rain = 0
KMC6 051018Z 31018G23KT 07/M00 A2995 RMK A01 T00731003  RH  059%=      5-min Rain = 0
KMC6 051019Z 31018KT 07/M00 A2995 RMK A01 T00731002  RH  059%=      5-min Rain = 0
KMC6 051020Z 31018KT 07/M00 A2995 RMK A01 T00741002  RH  059%=      5-min Rain = 0
KMC6 051021Z 31019KT 07/M00 A2995 RMK A01 T00741002  RH  059%=      5-min Rain = 0
KMC6 051022Z 32018G25KT 07/M00 A2995 RMK A01 T00741001  RH  059%=      5-min Rain = 0
KMC6 051023Z 31019G24KT 07/M00 A2995 RMK A01 T00741001  RH  059%=      5-min Rain = 0
KMC6 051024Z 31020KT 07/M00 A2995 RMK A01 T00741001  RH  059%=      5-min Rain = 0
KMC6 051025Z 31016KT 07/M00 A2995 RMK A01 T00741001  RH  059%=      5-min Rain = 0
KMC6 051026Z 31017KT 07/M00 A2995 RMK A01 T00741001  RH  059%=      5-min Rain = 0
KMC6 051027Z 31017G23KT 07/M00 A2995 RMK A01 T00731001  RH  059%=      5-min Rain = 0
KMC6 051028Z 31017G22KT 07/00 A2995 RMK A01 T007300-0  RH  060%=      5-min Rain = 0
KMC6 051029Z 31019G25KT 07/00 A2995 RMK A01 T007300-0  RH  060%=      5-min Rain = 0
KMC6 051030Z 31018G23KT 07/00 A2995 RMK A01 T00730000  RH  060%=      5-min Rain = 0
KMC6 051031Z 31019G24KT 07/00 A2995 RMK A01 T007300-0  RH  060%=      5-min Rain = 0
KMC6 051032Z 31019KT 07/00 A2995 RMK A01 T00740001  RH  060%=      5-min Rain = 0
KMC6 051033Z 31019G24KT 07/00 A2995 RMK A01 T00740001  RH  060%=      5-min Rain = 0
KMC6 051034Z 31019G24KT 07/00 A2995 RMK A01 T00740001  RH  060%=      5-min Rain = 0
KMC6 051035Z 31019KT 07/00 A2995 RMK A01 T00740001  RH  060%=      5-min Rain = 0
KMC6 051036Z 31017G24KT 07/00 A2995 RMK A01 T00740001  RH  060%=      5-min Rain = 0
KMC6 051037Z 31018G24KT 07/00 A2995 RMK A01 T00730001  RH  060%=      5-min Rain = 0
KMC6 051038Z 31016KT 07/00 A2995 RMK A01 T00730001  RH  060%=      5-min Rain = 0
KMC6 051039Z 31017G22KT 07/00 A2995 RMK A01 T00720001  RH  061%=      5-min Rain = 0
KMC6 051040Z 31019G25KT 07/00 A2995 RMK A01 T00720002  RH  061%=      5-min Rain = 0
KMC6 051041Z 31020G25KT 07/00 A2995 RMK A01 T00720002  RH  061%=      5-min Rain = 0
KMC6 051042Z 31018KT 07/00 A2995 RMK A01 T00730003  RH  061%=      5-min Rain = 0
KMC6 051043Z 31018G23KT 07/00 A2995 RMK A01 T00740002  RH  061%=      5-min Rain = 0
KMC6 051044Z 31016G21KT 07/00 A2996 RMK A01 T00730002  RH  061%=      5-min Rain = 0
KMC6 051045Z 31017KT 07/00 A2996 RMK A01 T00730002  RH  061%=      5-min Rain = 0
KMC6 051046Z 31018G24KT 07/00 A2995 RMK A01 T00720002  RH  061%=      5-min Rain = 0
KMC6 051047Z 31018KT 07/00 A2996 RMK A01 T00730003  RH  061%=      5-min Rain = 0
KMC6 051048Z 31019KT 07/00 A2996 RMK A01 T00730003  RH  061%=      5-min Rain = 0
KMC6 051049Z 31019KT 07/00 A2996 RMK A01 T00730003  RH  061%=      5-min Rain = 0
KMC6 051050Z 31018G24KT 07/00 A2996 RMK A01 T00730003  RH  061%=      5-min Rain = 0
KMC6 051051Z 31020G26KT 07/00 A2996 RMK A01 T00720003  RH  061%=      5-min Rain = 0
KMC6 051052Z 31017G25KT 07/00 A2996 RMK A01 T00730004  RH  061%=      5-min Rain = 0
KMC6 051053Z 31019G24KT 07/00 A2996 RMK A01 T00730003  RH  061%=      5-min Rain = 0
KMC6 051054Z 31017KT 07/00 A2996 RMK A01 T00730003  RH  061%=      5-min Rain = 0
KMC6 051055Z 31018G23KT 07/00 A2996 RMK A01 T00720003  RH  061%=      5-min Rain = 0
KMC6 051056Z 31019G25KT 07/00 A2996 RMK A01 T00710003  RH  062%=      5-min Rain = 0
KMC6 051057Z 31017KT 07/00 A2996 RMK A01 T00720003  RH  062%=      5-min Rain = 0
KMC6 051058Z 31018KT 07/00 A2996 RMK A01 T00720003  RH  062%=      5-min Rain = 0
KMC6 051059Z 31018G23KT 07/00 A2996 RMK A01 T00710003  RH  062%=      5-min Rain = 0
KMC6 051100Z 31017KT 07/00 A2996 RMK A01 T00710003  RH  062%=      5-min Rain = 0
KMC6 051101Z 31017G22KT 07/00 A2996 RMK A01 T00700003  RH  062%=      5-min Rain = 0
KMC6 051102Z 31018KT 07/00 A2996 RMK A01 T00700002  RH  062%=      5-min Rain = 0
KMC6 051103Z 31017KT 07/00 A2996 RMK A01 T00690002  RH  062%=      5-min Rain = 0
KMC6 051104Z 31017KT 07/00 A2997 RMK A01 T00690002  RH  063%=      5-min Rain = 0
KMC6 051105Z 31018KT 07/00 A2997 RMK A01 T00690003  RH  063%=      5-min Rain = 0
KMC6 051106Z 31017KT 07/00 A2997 RMK A01 T00690002  RH  063%=      5-min Rain = 0
KMC6 051107Z 31016KT 07/00 A2997 RMK A01 T00690002  RH  063%=      5-min Rain = 0
KMC6 051108Z 31017KT 07/00 A2997 RMK A01 T00690002  RH  063%=      5-min Rain = 0
KMC6 051109Z 31016KT 07/00 A2997 RMK A01 T00680002  RH  063%=      5-min Rain = 0
KMC6 051110Z 31016G21KT 07/00 A2997 RMK A01 T00670001  RH  063%=      5-min Rain = 0
KMC6 051111Z 31017G22KT 07/00 A2997 RMK A01 T00670002  RH  063%=      5-min Rain = 0
KMC6 051112Z 31016KT 07/00 A2997 RMK A01 T00670002  RH  063%=      5-min Rain = 0
KMC6 051113Z 31017KT 07/00 A2997 RMK A01 T00670001  RH  063%=      5-min Rain = 0
KMC6 051114Z 31016KT 07/00 A2997 RMK A01 T00670001  RH  063%=      5-min Rain = 0
KMC6 051115Z 31016KT 07/00 A2997 RMK A01 T00660001  RH  063%=      5-min Rain = 0
KMC6 051116Z 31016G22KT 07/00 A2997 RMK A01 T00670001  RH  063%=      5-min Rain = 0
KMC6 051117Z 31016KT 07/00 A2997 RMK A01 T00670001  RH  063%=      5-min Rain = 0
KMC6 051118Z 32015KT 07/00 A2998 RMK A01 T00670001  RH  063%=      5-min Rain = 0
KMC6 051119Z 32015KT 07/00 A2998 RMK A01 T00660000  RH  063%=      5-min Rain = 0
KMC6 051120Z 32014G20KT 07/00 A2998 RMK A01 T00660000  RH  063%=      5-min Rain = 0
KMC6 051121Z 31014KT 07/00 A2998 RMK A01 T006500-0  RH  063%=      5-min Rain = 0
KMC6 051122Z 31016KT 06/M00 A2998 RMK A01 T00641001  RH  063%=      5-min Rain = 0
KMC6 051123Z 31015KT 06/00 A2998 RMK A01 T00640000  RH  064%=      5-min Rain = 0
KMC6 051124Z 31014KT 07/00 A2998 RMK A01 T006500-0  RH  063%=      5-min Rain = 0
KMC6 051125Z 31014G19KT 06/00 A2998 RMK A01 T006400-0  RH  063%=      5-min Rain = 0
KMC6 051126Z 31014G19KT 06/00 A2998 RMK A01 T006400-0  RH  064%=      5-min Rain = 0
KMC6 051127Z 32013KT 06/00 A2998 RMK A01 T006300-0  RH  064%=      5-min Rain = 0
KMC6 051128Z 32014G19KT 06/00 A2998 RMK A01 T006300-0  RH  064%=      5-min Rain = 0
KMC6 051129Z 32014KT 06/00 A2998 RMK A01 T00630000  RH  064%=      5-min Rain = 0
KMC6 051130Z 32016KT 06/00 A2998 RMK A01 T00630000  RH  064%=      5-min Rain = 0
KMC6 051131Z 32014G19KT 06/00 A2998 RMK A01 T00630001  RH  064%=      5-min Rain = 0
KMC6 051132Z 32016KT 06/00 A2998 RMK A01 T00640001  RH  064%=      5-min Rain = 0
KMC6 051133Z 32015KT 06/00 A2998 RMK A01 T00640001  RH  064%=      5-min Rain = 0
KMC6 051134Z 32013KT 06/00 A2998 RMK A01 T00640001  RH  064%=      5-min Rain = 0
KMC6 051135Z 32012KT 06/00 A2998 RMK A01 T00630000  RH  064%=      5-min Rain = 0
KMC6 051136Z 32012KT 06/00 A2998 RMK A01 T006200-0  RH  064%=      5-min Rain = 0
KMC6 051137Z 32012KT 06/00 A2999 RMK A01 T006100-0  RH  065%=      5-min Rain = 0
KMC6 051138Z 32012KT 06/00 A2999 RMK A01 T00600000  RH  065%=      5-min Rain = 0
KMC6 051139Z 32012KT 06/00 A2999 RMK A01 T00600000  RH  065%=      5-min Rain = 0
KMC6 051140Z 32011KT 06/00 A2999 RMK A01 T006000-0  RH  065%=      5-min Rain = 0
KMC6 051141Z 32013KT 06/00 A2999 RMK A01 T005900-0  RH  066%=      5-min Rain = 0
KMC6 051142Z 32013G18KT 06/00 A2999 RMK A01 T00590000  RH  066%=      5-min Rain = 0
KMC6 051143Z 31013G18KT 06/00 A2998 RMK A01 T00590002  RH  067%=      5-min Rain = 0
KMC6 051144Z 31013KT 06/00 A2998 RMK A01 T00600002  RH  066%=      5-min Rain = 0
KMC6 051145Z 31013KT 06/00 A2998 RMK A01 T00600001  RH  066%=      5-min Rain = 0
KMC6 051146Z 31014KT 06/00 A2998 RMK A01 T00590000  RH  066%=      5-min Rain = 0
KMC6 051147Z 31013KT 06/00 A2998 RMK A01 T00590001  RH  066%=      5-min Rain = 0
KMC6 051148Z 31014KT 06/00 A2998 RMK A01 T00590001  RH  067%=      5-min Rain = 0
KMC6 051149Z 31012G17KT 06/00 A2998 RMK A01 T00590002  RH  067%=      5-min Rain = 0
KMC6 051150Z 31014G19KT 06/00 A2998 RMK A01 T00580001  RH  067%=      5-min Rain = 0
KMC6 051151Z 31015KT 06/00 A2998 RMK A01 T00580002  RH  067%=      5-min Rain = 0
KMC6 051152Z 31015KT 06/00 A2998 RMK A01 T00590002  RH  067%=      5-min Rain = 0
KMC6 051153Z 31015KT 06/00 A2998 RMK A01 T00590003  RH  067%=      5-min Rain = 0
KMC6 051154Z 30015KT 06/00 A2998 RMK A01 T00590003  RH  067%=      5-min Rain = 0
KMC6 051155Z 31016KT 06/00 A2998 RMK A01 T00590003  RH  067%=      5-min Rain = 0
KMC6 051156Z 31015KT 06/00 A2998 RMK A01 T00590003  RH  067%=      5-min Rain = 0
KMC6 051157Z 30014G19KT 06/00 A2998 RMK A01 T00590002  RH  067%=      5-min Rain = 0
KMC6 051158Z 30015KT 06/00 A2998 RMK A01 T00590003  RH  067%=      5-min Rain = 0
KMC6 051159Z 31014KT 06/00 A2998 RMK A01 T00590003  RH  067%=      5-min Rain = 0
KMC6 051200Z 31015KT 06/00 A2998 RMK A01 T00580003  RH  067%=      5-min Rain = 0
KMC6 051201Z 30014KT 06/00 A2998 RMK A01 T00590003  RH  067%=      5-min Rain = 0
KMC6 051202Z 30014KT 06/00 A2998 RMK A01 T00580002  RH  067%=      5-min Rain = 0
KMC6 051203Z 30014KT 06/00 A2998 RMK A01 T00570002  RH  068%=      5-min Rain = 0
KMC6 051204Z 30013KT 06/00 A2998 RMK A01 T00570002  RH  068%=      5-min Rain = 0
KMC6 051205Z 30013KT 06/00 A2998 RMK A01 T00570002  RH  068%=      5-min Rain = 0
KMC6 051206Z 31013KT 06/00 A2998 RMK A01 T00560002  RH  068%=      5-min Rain = 0
KMC6 051207Z 31012KT 06/00 A2998 RMK A01 T00560002  RH  068%=      5-min Rain = 0
KMC6 051208Z 31012KT 06/00 A2998 RMK A01 T00560003  RH  068%=      5-min Rain = 0
KMC6 051209Z 31012KT 06/00 A2998 RMK A01 T00570003  RH  068%=      5-min Rain = 0
KMC6 051210Z 31012KT 06/00 A2998 RMK A01 T00570003  RH  068%=      5-min Rain = 0
KMC6 051211Z 31010KT 06/00 A2998 RMK A01 T00560003  RH  068%=      5-min Rain = 0
KMC6 051212Z 31012KT 06/00 A2998 RMK A01 T00560003  RH  069%=      5-min Rain = 0
KMC6 051213Z 31013KT 06/00 A2998 RMK A01 T00550003  RH  069%=      5-min Rain = 0
KMC6 051214Z 31013KT 06/00 A2998 RMK A01 T00550003  RH  069%=      5-min Rain = 0
KMC6 051215Z 31013KT 06/00 A2999 RMK A01 T00550004  RH  069%=      5-min Rain = 0
KMC6 051216Z 31012KT 06/00 A2999 RMK A01 T00550004  RH  069%=      5-min Rain = 0
KMC6 051217Z 31012KT 06/00 A2999 RMK A01 T00550003  RH  069%=      5-min Rain = 0
KMC6 051218Z 31013KT 05/00 A2999 RMK A01 T00540003  RH  069%=      5-min Rain = 0
KMC6 051219Z 31013KT 05/00 A2999 RMK A01 T00540003  RH  070%=      5-min Rain = 0
KMC6 051220Z 31014KT 05/00 A2999 RMK A01 T00540003  RH  070%=      5-min Rain = 0
KMC6 051221Z 31013KT 05/00 A2999 RMK A01 T00540003  RH  070%=      5-min Rain = 0
KMC6 051222Z 31013KT 05/00 A2999 RMK A01 T00540003  RH  070%=      5-min Rain = 0
KMC6 051223Z 31012KT 05/00 A2999 RMK A01 T00540003  RH  070%=      5-min Rain = 0
KMC6 051224Z 31012KT 05/00 A2998 RMK A01 T00530003  RH  070%=      5-min Rain = 0
KMC6 051225Z 31012KT 05/00 A2998 RMK A01 T00520003  RH  070%=      5-min Rain = 0
KMC6 051226Z 31011KT 05/00 A2998 RMK A01 T00520003  RH  070%=      5-min Rain = 0
KMC6 051227Z 31011KT 05/00 A2998 RMK A01 T00520003  RH  071%=      5-min Rain = 0
KMC6 051228Z 31012KT 05/00 A2998 RMK A01 T00510003  RH  071%=      5-min Rain = 0
KMC6 051229Z 31013KT 05/00 A2999 RMK A01 T00510003  RH  071%=      5-min Rain = 0
KMC6 051230Z 31012KT 05/00 A2999 RMK A01 T00520004  RH  071%=      5-min Rain = 0
KMC6 051231Z 31012KT 05/00 A2999 RMK A01 T00520004  RH  071%=      5-min Rain = 0
KMC6 051232Z 31012KT 05/00 A2999 RMK A01 T00520004  RH  071%=      5-min Rain = 0
KMC6 051233Z 31012KT 05/00 A2999 RMK A01 T00520004  RH  071%=      5-min Rain = 0
KMC6 051234Z 31012KT 05/00 A2999 RMK A01 T00520004  RH  071%=      5-min Rain = 0
KMC6 051235Z 31013KT 05/00 A2999 RMK A01 T00520004  RH  071%=      5-min Rain = 0
KMC6 051236Z 31012KT 05/00 A2999 RMK A01 T00520004  RH  071%=      5-min Rain = 0
KMC6 051237Z 31013KT 05/00 A2999 RMK A01 T00520004  RH  071%=      5-min Rain = 0
KMC6 051238Z 31012KT 05/01 A2999 RMK A01 T00520005  RH  071%=      5-min Rain = 0
KMC6 051239Z 31013KT 05/01 A2999 RMK A01 T00520005  RH  072%=      5-min Rain = 0
KMC6 051240Z 31012KT 05/01 A2999 RMK A01 T00530005  RH  071%=      5-min Rain = 0
KMC6 051241Z 31013KT 05/01 A2999 RMK A01 T00530005  RH  071%=      5-min Rain = 0
KMC6 051242Z 31012KT 05/01 A2999 RMK A01 T00530006  RH  071%=      5-min Rain = 0
KMC6 051243Z 31011KT 05/01 A2999 RMK A01 T00540006  RH  071%=      5-min Rain = 0
KMC6 051244Z 32010KT 05/01 A2999 RMK A01 T00530005  RH  071%=      5-min Rain = 0
KMC6 051245Z 32010KT 05/00 A2999 RMK A01 T00520004  RH  071%=      5-min Rain = 0
KMC6 051246Z 32010KT 05/00 A2999 RMK A01 T00510004  RH  072%=      5-min Rain = 0
KMC6 051247Z 31010KT 05/00 A2999 RMK A01 T00510004  RH  072%=      5-min Rain = 0
KMC6 051248Z 31011KT 05/01 A2999 RMK A01 T00510005  RH  072%=      5-min Rain = 0
KMC6 051249Z 31012KT 05/01 A2999 RMK A01 T00510006  RH  072%=      5-min Rain = 0
KMC6 051250Z 30012KT 05/01 A2999 RMK A01 T00520006  RH  072%=      5-min Rain = 0
KMC6 051251Z 30013KT 05/01 A2999 RMK A01 T00520006  RH  072%=      5-min Rain = 0
KMC6 051252Z 30013KT 05/01 A2999 RMK A01 T00520006  RH  072%=      5-min Rain = 0
KMC6 051253Z 30013KT 05/01 A2999 RMK A01 T00530006  RH  072%=      5-min Rain = 0
KMC6 051254Z 31013KT 05/01 A2999 RMK A01 T00530006  RH  072%=      5-min Rain = 0
KMC6 051255Z 31011KT 05/01 A2999 RMK A01 T00530006  RH  072%=      5-min Rain = 0
KMC6 051256Z 31012KT 05/01 A2999 RMK A01 T00530006  RH  072%=      5-min Rain = 0
KMC6 051257Z 31013KT 05/01 A2999 RMK A01 T00530007  RH  072%=      5-min Rain = 0
KMC6 051258Z 31013KT 05/01 A2999 RMK A01 T00540008  RH  072%=      5-min Rain = 0
KMC6 051259Z 31014KT 06/01 A2999 RMK A01 T00550009  RH  072%=      5-min Rain = 0
KMC6 051300Z 31013KT 06/01 A2999 RMK A01 T00560009  RH  072%=      5-min Rain = 0
KMC6 051301Z 31012KT 06/01 A2999 RMK A01 T00560009  RH  072%=      5-min Rain = 0
KMC6 051302Z 31014KT 06/01 A2999 RMK A01 T00560009  RH  072%=      5-min Rain = 0
KMC6 051303Z 31012KT 06/01 A2999 RMK A01 T00570010  RH  072%=      5-min Rain = 0
KMC6 051304Z 31012KT 06/01 A2999 RMK A01 T00570009  RH  071%=      5-min Rain = 0
KMC6 051305Z 31013KT 06/01 A2999 RMK A01 T00560009  RH  072%=      5-min Rain = 0
KMC6 051306Z 31013KT 06/01 A2999 RMK A01 T00560009  RH  072%=      5-min Rain = 0
KMC6 051307Z 31012KT 06/01 A2999 RMK A01 T00560009  RH  072%=      5-min Rain = 0
KMC6 051308Z 31013KT 06/01 A2999 RMK A01 T00560009  RH  072%=      5-min Rain = 0
KMC6 051309Z 31013KT 06/01 A2999 RMK A01 T00560009  RH  072%=      5-min Rain = 0
KMC6 051310Z 31013G18KT 06/01 A2999 RMK A01 T00560010  RH  072%=      5-min Rain = 0
KMC6 051311Z 31014KT 06/01 A2999 RMK A01 T00570010  RH  072%=      5-min Rain = 0
KMC6 051312Z 31014KT 06/01 A2999 RMK A01 T00570011  RH  072%=      5-min Rain = 0
KMC6 051313Z 31014KT 06/01 A2999 RMK A01 T00580011  RH  072%=      5-min Rain = 0
KMC6 051314Z 31014KT 06/01 A2999 RMK A01 T00580011  RH  072%=      5-min Rain = 0
KMC6 051315Z 31013KT 06/01 A2999 RMK A01 T00590012  RH  072%=      5-min Rain = 0
KMC6 051316Z 31014KT 06/01 A2999 RMK A01 T00590012  RH  072%=      5-min Rain = 0
KMC6 051317Z 31014KT 06/01 A2999 RMK A01 T00590012  RH  072%=      5-min Rain = 0
KMC6 051318Z 31015KT 06/01 A2999 RMK A01 T00600012  RH  072%=      5-min Rain = 0
KMC6 051319Z 31014KT 06/01 A2999 RMK A01 T00600012  RH  072%=      5-min Rain = 0
KMC6 051320Z 31015G20KT 06/01 A2999 RMK A01 T00600012  RH  071%=      5-min Rain = 0
KMC6 051321Z 31015KT 06/01 A2999 RMK A01 T00600013  RH  072%=      5-min Rain = 0
KMC6 051322Z 31014KT 06/01 A2999 RMK A01 T00610013  RH  071%=      5-min Rain = 0
KMC6 051323Z 31015KT 06/01 A2999 RMK A01 T00610013  RH  071%=      5-min Rain = 0
KMC6 051324Z 31015KT 06/01 A2999 RMK A01 T00610013  RH  072%=      5-min Rain = 0
KMC6 051325Z 31014KT 06/01 A2999 RMK A01 T00610013  RH  072%=      5-min Rain = 0
KMC6 051326Z 31014KT 06/01 A2999 RMK A01 T00610014  RH  072%=      5-min Rain = 0
KMC6 051327Z 31015KT 06/01 A2999 RMK A01 T00610014  RH  072%=      5-min Rain = 0
KMC6 051328Z 31014KT 06/02 A2999 RMK A01 T00620015  RH  072%=      5-min Rain = 0
KMC6 051329Z 31015KT 06/02 A2999 RMK A01 T00630016  RH  072%=      5-min Rain = 0
KMC6 051330Z 31015KT 06/02 A2999 RMK A01 T00640017  RH  072%=      5-min Rain = 0
KMC6 051331Z 31015G20KT 06/02 A2999 RMK A01 T00640017  RH  072%=      5-min Rain = 0
KMC6 051332Z 31016KT 07/02 A2999 RMK A01 T00650018  RH  072%=      5-min Rain = 0
KMC6 051333Z 31017KT 07/02 A30 RMK A01 T00660019  RH  072%=      5-min Rain = 0
KMC6 051334Z 31015KT 07/02 A30 RMK A01 T00670019  RH  072%=      5-min Rain = 0
KMC6 051335Z 31016KT 07/02 A30 RMK A01 T00680019  RH  071%=      5-min Rain = 0
KMC6 051336Z 31016KT 07/02 A30 RMK A01 T00680020  RH  071%=      5-min Rain = 0
KMC6 051337Z 31016KT 07/02 A30 RMK A01 T00690020  RH  071%=      5-min Rain = 0
KMC6 051338Z 31015KT 07/02 A30 RMK A01 T00690021  RH  071%=      5-min Rain = 0
KMC6 051339Z 31015KT 07/02 A30 RMK A01 T00700021  RH  071%=      5-min Rain = 0
KMC6 051340Z 31017KT 07/02 A30 RMK A01 T00700022  RH  071%=      5-min Rain = 0
KMC6 051341Z 31016KT 07/02 A30 RMK A01 T00710023  RH  071%=      5-min Rain = 0
KMC6 051342Z 31013KT 07/02 A30 RMK A01 T00720023  RH  071%=      5-min Rain = 0
KMC6 051343Z 31014KT 07/02 A30 RMK A01 T00720023  RH  071%=      5-min Rain = 0
KMC6 051344Z 31014KT 07/02 A30 RMK A01 T00720024  RH  071%=      5-min Rain = 0
KMC6 051345Z 31014KT 07/02 A30 RMK A01 T00730024  RH  071%=      5-min Rain = 0
KMC6 051346Z 31014KT 07/02 A30 RMK A01 T00730024  RH  071%=      5-min Rain = 0
KMC6 051347Z 31013KT 07/03 A3001 RMK A01 T00740025  RH  071%=      5-min Rain = 0
KMC6 051348Z 32012G17KT 07/03 A3001 RMK A01 T00740025  RH  071%=      5-min Rain = 0
KMC6 051349Z 32013KT 07/03 A3001 RMK A01 T00740025  RH  071%=      5-min Rain = 0
KMC6 051350Z 32013G18KT 07/03 A3001 RMK A01 T00740026  RH  072%=      5-min Rain = 0
KMC6 051351Z 31012KT 08/03 A3001 RMK A01 T00750027  RH  072%=      5-min Rain = 0
KMC6 051352Z 32012G17KT 08/03 A3001 RMK A01 T00760028  RH  072%=      5-min Rain = 0
KMC6 051353Z 32013KT 08/03 A3001 RMK A01 T00760028  RH  072%=      5-min Rain = 0
KMC6 051354Z 32014KT 08/03 A3001 RMK A01 T00770030  RH  072%=      5-min Rain = 0
KMC6 051355Z 32012G17KT 08/03 A3001 RMK A01 T00780031  RH  072%=      5-min Rain = 0
KMC6 051356Z 32014KT 08/03 A3001 RMK A01 T00790031  RH  072%=      5-min Rain = 0
KMC6 051357Z 32014G19KT 08/03 A3001 RMK A01 T00790032  RH  072%=      5-min Rain = 0
KMC6 051358Z 32013KT 08/03 A3002 RMK A01 T00800032  RH  072%=      5-min Rain = 0
KMC6 051359Z 32011KT 08/03 A3002 RMK A01 T00810033  RH  072%=      5-min Rain = 0
KMC6 051400Z 33011KT 08/03 A3002 RMK A01 T00810033  RH  072%=      5-min Rain = 0
KMC6 051401Z 33013G18KT 08/03 A3002 RMK A01 T00820034  RH  072%=      5-min Rain = 0
KMC6 051402Z 32013G18KT 08/03 A3002 RMK A01 T00830034  RH  072%=      5-min Rain = 0
KMC6 051403Z 33014KT 08/04 A3002 RMK A01 T00840035  RH  071%=      5-min Rain = 0
KMC6 051404Z 33012KT 08/04 A3002 RMK A01 T00840036  RH  071%=      5-min Rain = 0
KMC6 051405Z 33013G18KT 09/04 A3002 RMK A01 T00850036  RH  071%=      5-min Rain = 0
KMC6 051406Z 33014KT 09/04 A3002 RMK A01 T00860036  RH  071%=      5-min Rain = 0
KMC6 051407Z 33014KT 09/04 A3002 RMK A01 T00870036  RH  071%=      5-min Rain = 0
KMC6 051408Z 33013KT 09/04 A3002 RMK A01 T00870037  RH  070%=      5-min Rain = 0
KMC6 051409Z 33014G22KT 09/04 A3002 RMK A01 T00880037  RH  070%=      5-min Rain = 0
KMC6 051410Z 33017G22KT 09/04 A3002 RMK A01 T00890037  RH  070%=      5-min Rain = 0
KMC6 051411Z 33016G22KT 09/04 A3002 RMK A01 T00890037  RH  070%=      5-min Rain = 0
KMC6 051412Z 33019KT 09/04 A3002 RMK A01 T00900038  RH  070%=      5-min Rain = 0
KMC6 051413Z 34016G23KT 09/04 A3002 RMK A01 T00910038  RH  070%=      5-min Rain = 0
KMC6 051414Z 34017KT 09/04 A3002 RMK A01 T00910038  RH  069%=      5-min Rain = 0
KMC6 051415Z 34017G22KT 09/04 A3002 RMK A01 T00910038  RH  069%=      5-min Rain = 0
KMC6 051416Z 34019G25KT 09/04 A3003 RMK A01 T00920038  RH  069%=      5-min Rain = 0
KMC6 051417Z 34021G26KT 09/04 A3003 RMK A01 T00920039  RH  069%=      5-min Rain = 0
KMC6 051418Z 34021G26KT 09/04 A3003 RMK A01 T00920039  RH  069%=      5-min Rain = 0
KMC6 051419Z 34020G26KT 09/04 A3003 RMK A01 T00920039  RH  069%=      5-min Rain = 0
KMC6 051420Z 34018G23KT 09/04 A3003 RMK A01 T00930040  RH  070%=      5-min Rain = 0
KMC6 051421Z 34019G25KT 09/04 A3003 RMK A01 T00930040  RH  069%=      5-min Rain = 0
KMC6 051422Z 34019G26KT 09/04 A3003 RMK A01 T00930040  RH  069%=      5-min Rain = 0
KMC6 051423Z 34020G25KT 09/04 A3004 RMK A01 T00940040  RH  069%=      5-min Rain = 0
KMC6 051424Z 35019G24KT 09/04 A3004 RMK A01 T00940040  RH  069%=      5-min Rain = 0
KMC6 051425Z 35022G28KT 09/04 A3004 RMK A01 T00940040  RH  069%=      5-min Rain = 0
KMC6 051426Z 34020G27KT 09/04 A3004 RMK A01 T00940041  RH  069%=      5-min Rain = 0
KMC6 051427Z 34019G26KT 09/04 A3004 RMK A01 T00930041  RH  070%=      5-min Rain = 0
KMC6 051428Z 35018G24KT 09/04 A3004 RMK A01 T00940041  RH  070%=      5-min Rain = 0
KMC6 051429Z 35021G26KT 10/04 A3004 RMK A01 T00950041  RH  069%=      5-min Rain = 0
KMC6 051430Z 35020G25KT 10/04 A3004 RMK A01 T00950042  RH  069%=      5-min Rain = 0
KMC6 051431Z 35022G30KT 10/04 A3004 RMK A01 T00950042  RH  070%=      5-min Rain = 0
KMC6 051432Z 34018G26KT 10/04 A3004 RMK A01 T00960044  RH  070%=      5-min Rain = 0
KMC6 051433Z 35023G29KT 10/04 A3005 RMK A01 T00970044  RH  069%=      5-min Rain = 0
KMC6 051434Z 34023G30KT 10/04 A3005 RMK A01 T00960043  RH  069%=      5-min Rain = 0
KMC6 051435Z 34022G27KT 10/04 A3005 RMK A01 T00950042  RH  070%=      5-min Rain = 0
KMC6 051436Z 34022G29KT 09/04 A3005 RMK A01 T00940043  RH  070%=      5-min Rain = 0
KMC6 051437Z 34022G27KT 09/04 A3005 RMK A01 T00940043  RH  071%=      5-min Rain = 0
KMC6 051438Z 34022KT 09/04 A3005 RMK A01 T00930043  RH  071%=      5-min Rain = 0
KMC6 051439Z 34018G23KT 09/04 A3006 RMK A01 T00920043  RH  071%=      5-min Rain = 0
KMC6 051440Z 34018G23KT 09/04 A3006 RMK A01 T00920043  RH  071%=      5-min Rain = 0
KMC6 051441Z 35018KT 09/04 A3006 RMK A01 T00920043  RH  071%=      5-min Rain = 0
KMC6 051442Z 34019G25KT 09/04 A3006 RMK A01 T00920043  RH  071%=      5-min Rain = 0
KMC6 051443Z 34023KT 09/04 A3006 RMK A01 T00920043  RH  072%=      5-min Rain = 0
KMC6 051444Z 35020G25KT 09/04 A3006 RMK A01 T00920044  RH  072%=      5-min Rain = 0
KMC6 051445Z 34015G21KT 09/04 A3006 RMK A01 T00920044  RH  072%=      5-min Rain = 0
KMC6 051446Z 34020G25KT 09/04 A3006 RMK A01 T00920044  RH  072%=      5-min Rain = 0
KMC6 051447Z 35020G25KT 09/04 A3006 RMK A01 T00920044  RH  072%=      5-min Rain = 0
KMC6 051448Z 34017KT 09/04 A3007 RMK A01 T00930044  RH  072%=      5-min Rain = 0
KMC6 051449Z 34018G23KT 09/04 A3007 RMK A01 T00930044  RH  072%=      5-min Rain = 0
KMC6 051450Z 34018G24KT 09/05 A3007 RMK A01 T00930045  RH  072%=      5-min Rain = 0
KMC6 051451Z 35018G25KT 09/05 A3007 RMK A01 T00930045  RH  072%=      5-min Rain = 0
KMC6 051452Z 36019G24KT 09/05 A3007 RMK A01 T00930045  RH  072%=      5-min Rain = 0
KMC6 051453Z 36020G27KT 09/05 A3007 RMK A01 T00930045  RH  072%=      5-min Rain = 0
KMC6 051454Z 35022G27KT 09/04 A3007 RMK A01 T00930044  RH  071%=      5-min Rain = 0
KMC6 051455Z 36020G26KT 09/04 A3007 RMK A01 T00930044  RH  071%=      5-min Rain = 0
KMC6 051456Z 35018G23KT 09/04 A3007 RMK A01 T00930044  RH  072%=      5-min Rain = 0
KMC6 051457Z 35017G22KT 09/05 A3007 RMK A01 T00930045  RH  072%=      5-min Rain = 0
KMC6 051458Z 35019KT 09/05 A3008 RMK A01 T00940045  RH  072%=      5-min Rain = 0
KMC6 051459Z 35021G30KT 09/05 A3008 RMK A01 T00940045  RH  071%=      5-min Rain = 0
KMC6 051500Z 36023G29KT 09/04 A3008 RMK A01 T00940044  RH  071%=      5-min Rain = 0
KMC6 051501Z 35024G30KT 09/04 A3008 RMK A01 T00930044  RH  071%=      5-min Rain = 0
KMC6 051502Z 36025KT 09/04 A3008 RMK A01 T00930044  RH  071%=      5-min Rain = 0
KMC6 051503Z 35022G28KT 09/04 A3008 RMK A01 T00920044  RH  072%=      5-min Rain = 0
KMC6 051504Z 35022G28KT 09/04 A3008 RMK A01 T00920044  RH  072%=      5-min Rain = 0
KMC6 051505Z 35018G25KT 09/04 A3008 RMK A01 T00920044  RH  072%=      5-min Rain = 0
KMC6 051506Z 35022G27KT 09/04 A3008 RMK A01 T00920044  RH  072%=      5-min Rain = 0
KMC6 051507Z 00018G24KT 09/04 A3008 RMK A01 T00920043  RH  072%=      5-min Rain = 0
KMC6 051508Z 36016G24KT 09/04 A3009 RMK A01 T00910043  RH  072%=      5-min Rain = 0
KMC6 051509Z 00019G25KT 09/04 A3009 RMK A01 T00920043  RH  071%=      5-min Rain = 0
KMC6 051510Z 36018G23KT 09/04 A3009 RMK A01 T00920042  RH  071%=      5-min Rain = 0
KMC6 051511Z 36017G23KT 09/04 A3009 RMK A01 T00920043  RH  071%=      5-min Rain = 0
KMC6 051512Z 00017G24KT 09/04 A3009 RMK A01 T00910043  RH  071%=      5-min Rain = 0
KMC6 051513Z 00022G28KT 09/04 A3009 RMK A01 T00910042  RH  071%=      5-min Rain = 0
KMC6 051514Z 00019G25KT 09/04 A3009 RMK A01 T00910041  RH  071%=      5-min Rain = 0
KMC6 051515Z 00020G27KT 09/04 A3009 RMK A01 T00910041  RH  071%=      5-min Rain = 0
KMC6 051516Z 00021KT 09/04 A3009 RMK A01 T00900041  RH  071%=      5-min Rain = 0
KMC6 051517Z 01020G26KT 09/04 A3009 RMK A01 T00900041  RH  071%=      5-min Rain = 0
KMC6 051518Z 00017G26KT 09/04 A3009 RMK A01 T00900041  RH  071%=      5-min Rain = 0
KMC6 051519Z 00017G24KT 09/04 A3009 RMK A01 T00900041  RH  071%=      5-min Rain = 0
KMC6 051520Z 01021G27KT 09/04 A3009 RMK A01 T00900041  RH  071%=      5-min Rain = 0
KMC6 051521Z 36019G25KT 09/04 A3009 RMK A01 T00900041  RH  071%=      5-min Rain = 0
KMC6 051522Z 00023G28KT 09/04 A3009 RMK A01 T00900041  RH  071%=      5-min Rain = 0
KMC6 051523Z 01022G28KT 09/04 A3009 RMK A01 T00910041  RH  071%=      5-min Rain = 0
KMC6 051524Z 01021G26KT 09/04 A3009 RMK A01 T00910041  RH  071%=      5-min Rain = 0
KMC6 051525Z 01017G23KT 09/04 A3009 RMK A01 T00910041  RH  071%=      5-min Rain = 0
KMC6 051526Z 02018G23KT 09/04 A3009 RMK A01 T00930042  RH  071%=      5-min Rain = 0
KMC6 051527Z 01020KT 09/04 A3009 RMK A01 T00930042  RH  070%=      5-min Rain = 0
KMC6 051528Z 01018G23KT 09/04 A3009 RMK A01 T00930042  RH  070%=      5-min Rain = 0
KMC6 051529Z 01019KT 09/04 A3009 RMK A01 T00930041  RH  070%=      5-min Rain = 0
KMC6 051530Z 01017KT 09/04 A3009 RMK A01 T00930041  RH  070%=      5-min Rain = 0
KMC6 051531Z 02019G24KT 10/04 A3009 RMK A01 T00950043  RH  070%=      5-min Rain = 0
KMC6 051532Z 02019KT 10/04 A3009 RMK A01 T00970043  RH  069%=      5-min Rain = 0
KMC6 051533Z 01020G28KT 10/04 A3009 RMK A01 T00970043  RH  069%=      5-min Rain = 0
KMC6 051534Z 01022G27KT 10/04 A3009 RMK A01 T00990044  RH  069%=      5-min Rain = 0
KMC6 051535Z 01020G29KT 10/04 A3009 RMK A01 T01010044  RH  068%=      5-min Rain = 0
KMC6 051536Z 01019KT 10/05 A3009 RMK A01 T01020045  RH  068%=      5-min Rain = 0
KMC6 051537Z 02019KT 10/04 A3009 RMK A01 T01030044  RH  067%=      5-min Rain = 0
KMC6 051538Z 02023G30KT 10/05 A3009 RMK A01 T01040045  RH  067%=      5-min Rain = 0
KMC6 051539Z 02017G25KT 10/04 A3009 RMK A01 T01040044  RH  066%=      5-min Rain = 0
KMC6 051540Z 02021G27KT 11/05 A3009 RMK A01 T01050045  RH  066%=      5-min Rain = 0
KMC6 051541Z 02020G26KT 11/05 A3009 RMK A01 T01070045  RH  065%=      5-min Rain = 0
KMC6 051542Z 01020G25KT 11/04 A3009 RMK A01 T01070044  RH  065%=      5-min Rain = 0
KMC6 051543Z 01020G29KT 11/05 A301 RMK A01 T01090047  RH  066%=      5-min Rain = 0
KMC6 051544Z 01024G33KT 11/05 A301 RMK A01 T01120047  RH  064%=      5-min Rain = 0
KMC6 051545Z 01025G33KT 11/05 A301 RMK A01 T01120045  RH  064%=      5-min Rain = 0
KMC6 051546Z 01025G31KT 11/04 A301 RMK A01 T01090043  RH  064%=      5-min Rain = 0
KMC6 051547Z 01029G35KT 11/04 A301 RMK A01 T01090044  RH  064%=      5-min Rain = 0
KMC6 051548Z 01029G34KT 11/04 A301 RMK A01 T01090043  RH  064%=      5-min Rain = 0
KMC6 051549Z 01026G33KT 11/04 A301 RMK A01 T01060041  RH  064%=      5-min Rain = 0
KMC6 051550Z 01027KT 11/04 A301 RMK A01 T01050041  RH  065%=      5-min Rain = 0
KMC6 051551Z 02023G29KT 10/04 A301 RMK A01 T01030041  RH  065%=      5-min Rain = 0
KMC6 051552Z 01023KT 10/04 A301 RMK A01 T01030042  RH  066%=      5-min Rain = 0
KMC6 051553Z 01023G29KT 10/04 A3011 RMK A01 T01040042  RH  065%=      5-min Rain = 0
KMC6 051554Z 00023KT 11/04 A3011 RMK A01 T01050042  RH  065%=      5-min Rain = 0
KMC6 051555Z 01024G34KT 11/04 A3011 RMK A01 T01050042  RH  065%=      5-min Rain = 0
KMC6 051556Z 02026KT 11/04 A3011 RMK A01 T01050042  RH  065%=      5-min Rain = 0
KMC6 051557Z 02023G30KT 11/04 A3011 RMK A01 T01050042  RH  065%=      5-min Rain = 0
KMC6 051558Z 01025KT 11/04 A3011 RMK A01 T01050041  RH  065%=      5-min Rain = 0
KMC6 051559Z 01026G33KT 10/04 A3011 RMK A01 T01040041  RH  065%=      5-min Rain = 0
KMC6 051600Z 01025G32KT 10/04 A3011 RMK A01 T01030041  RH  065%=      5-min Rain = 0
KMC6 051601Z 01030G35KT 10/04 A3012 RMK A01 T01020041  RH  066%=      5-min Rain = 0
KMC6 051602Z 01026G32KT 10/04 A3012 RMK A01 T01010040  RH  066%=      5-min Rain = 0
KMC6 051603Z 01020G27KT 10/04 A3012 RMK A01 T01000041  RH  066%=      5-min Rain = 0
KMC6 051604Z 01024G30KT 10/04 A3012 RMK A01 T01010041  RH  066%=      5-min Rain = 0
KMC6 051605Z 01025G33KT 10/04 A3012 RMK A01 T01010041  RH  066%=      5-min Rain = 0
KMC6 051606Z 01029G37KT 10/04 A3012 RMK A01 T01000041  RH  066%=      5-min Rain = 0
KMC6 051607Z 01025G31KT 10/04 A3012 RMK A01 T00990041  RH  067%=      5-min Rain = 0
KMC6 051608Z 01024G31KT 10/04 A3012 RMK A01 T01000041  RH  067%=      5-min Rain = 0
KMC6 051609Z 01025G30KT 10/04 A3012 RMK A01 T01000042  RH  067%=      5-min Rain = 0
KMC6 051610Z 01022KT 10/04 A3012 RMK A01 T01010042  RH  067%=      5-min Rain = 0
KMC6 051611Z 01023G29KT 10/04 A3012 RMK A01 T01020043  RH  066%=      5-min Rain = 0
KMC6 051612Z 00021G29KT 10/04 A3012 RMK A01 T01030042  RH  066%=      5-min Rain = 0
KMC6 051613Z 36024G30KT 10/04 A3012 RMK A01 T01030043  RH  066%=      5-min Rain = 0
KMC6 051614Z 36024G30KT 10/04 A3012 RMK A01 T01030042  RH  066%=      5-min Rain = 0
KMC6 051615Z 01024G30KT 10/04 A3012 RMK A01 T01030042  RH  066%=      5-min Rain = 0
KMC6 051616Z 01025G32KT 10/04 A3012 RMK A01 T01030043  RH  066%=      5-min Rain = 0
KMC6 051617Z 01022G30KT 10/04 A3012 RMK A01 T01040042  RH  066%=      5-min Rain = 0
KMC6 051618Z 01023G29KT 11/04 A3012 RMK A01 T01050043  RH  066%=      5-min Rain = 0
KMC6 051619Z 01021G26KT 11/04 A3012 RMK A01 T01060044  RH  065%=      5-min Rain = 0
KMC6 051620Z 01023G30KT 11/04 A3013 RMK A01 T01070044  RH  065%=      5-min Rain = 0
KMC6 051621Z 01023G29KT 11/04 A3012 RMK A01 T01080044  RH  065%=      5-min Rain = 0
KMC6 051622Z 00024G29KT 11/04 A3013 RMK A01 T01090044  RH  064%=      5-min Rain = 0
KMC6 051623Z 00026G34KT 11/04 A3013 RMK A01 T01090043  RH  064%=      5-min Rain = 0
KMC6 051624Z 01026G33KT 11/04 A3013 RMK A01 T01080042  RH  064%=      5-min Rain = 0
KMC6 051625Z 36025G31KT 11/04 A3013 RMK A01 T01070043  RH  064%=      5-min Rain = 0
KMC6 051626Z 36026G33KT 11/04 A3013 RMK A01 T01070042  RH  064%=      5-min Rain = 0
KMC6 051627Z 36023G30KT 11/04 A3013 RMK A01 T01060043  RH  065%=      5-min Rain = 0
KMC6 051628Z 00023G28KT 11/05 A3013 RMK A01 T01100047  RH  065%=      5-min Rain = 0
KMC6 051629Z 01027G36KT 11/05 A3013 RMK A01 T01130047  RH  064%=      5-min Rain = 0
KMC6 051630Z 01025G31KT 11/05 A3013 RMK A01 T01140045  RH  062%=      5-min Rain = 0
KMC6 051631Z 01018G25KT 12/05 A3013 RMK A01 T01150046  RH  063%=      5-min Rain = 0
KMC6 051632Z 00025G34KT 12/05 A3013 RMK A01 T01170046  RH  062%=      5-min Rain = 0
KMC6 051633Z 00026G33KT 11/04 A3013 RMK A01 T01140043  RH  062%=      5-min Rain = 0
KMC6 051634Z 00026KT 11/04 A3013 RMK A01 T01120043  RH  063%=      5-min Rain = 0
KMC6 051635Z 00026G35KT 11/04 A3014 RMK A01 T01090043  RH  064%=      5-min Rain = 0
KMC6 051636Z 00025G31KT 11/04 A3014 RMK A01 T01090044  RH  064%=      5-min Rain = 0
KMC6 051637Z 01026G32KT 11/04 A3014 RMK A01 T01070044  RH  065%=      5-min Rain = 0
KMC6 051638Z 01028G36KT 11/05 A3014 RMK A01 T01070045  RH  065%=      5-min Rain = 0
KMC6 051639Z 01026G35KT 11/05 A3014 RMK A01 T01100047  RH  065%=      5-min Rain = 0
KMC6 051640Z 01027G32KT 11/05 A3014 RMK A01 T01100046  RH  065%=      5-min Rain = 0
KMC6 051641Z 01024G30KT 11/05 A3014 RMK A01 T01100047  RH  065%=      5-min Rain = 0
KMC6 051642Z 01026G32KT 11/05 A3014 RMK A01 T01100046  RH  065%=      5-min Rain = 0
KMC6 051643Z 01026KT 11/05 A3014 RMK A01 T01090045  RH  065%=      5-min Rain = 0
KMC6 051644Z 01025G30KT 11/05 A3014 RMK A01 T01070045  RH  065%=      5-min Rain = 0
KMC6 051645Z 01022G27KT 11/05 A3014 RMK A01 T01060045  RH  066%=      5-min Rain = 0
KMC6 051646Z 01021G29KT 11/05 A3014 RMK A01 T01070045  RH  066%=      5-min Rain = 0
KMC6 051647Z 00023G30KT 11/05 A3014 RMK A01 T01070046  RH  066%=      5-min Rain = 0
KMC6 051648Z 01022G28KT 11/05 A3014 RMK A01 T01080046  RH  066%=      5-min Rain = 0
KMC6 051649Z 00022G28KT 11/05 A3014 RMK A01 T01070046  RH  066%=      5-min Rain = 0
KMC6 051650Z 00025G30KT 11/05 A3014 RMK A01 T01080046  RH  066%=      5-min Rain = 0
KMC6 051651Z 01025G33KT 11/05 A3014 RMK A01 T01070046  RH  066%=      5-min Rain = 0
KMC6 051652Z 00023G28KT 11/05 A3014 RMK A01 T01060047  RH  067%=      5-min Rain = 0
KMC6 051653Z 36022G29KT 11/05 A3014 RMK A01 T01070048  RH  067%=      5-min Rain = 0
KMC6 051654Z 00025G30KT 11/05 A3015 RMK A01 T01070048  RH  067%=      5-min Rain = 0
KMC6 051655Z 00022G30KT 11/05 A3015 RMK A01 T01070048  RH  067%=      5-min Rain = 0
KMC6 051656Z 35018G23KT 11/05 A3014 RMK A01 T01070049  RH  067%=      5-min Rain = 0
KMC6 051657Z 00020G25KT 11/05 A3015 RMK A01 T01100050  RH  067%=      5-min Rain = 0
KMC6 051658Z 00025G30KT 11/05 A3015 RMK A01 T01100050  RH  066%=      5-min Rain = 0
KMC6 051659Z 35021G28KT 11/05 A3015 RMK A01 T01090050  RH  067%=      5-min Rain = 0
KMC6 051700Z 36022G31KT 11/05 A3015 RMK A01 T01090050  RH  067%=      5-min Rain = 0
KMC6 051701Z 35026G31KT 11/05 A3015 RMK A01 T01100049  RH  066%=      5-min Rain = 0
KMC6 051702Z 35025G31KT 11/05 A3015 RMK A01 T01100050  RH  066%=      5-min Rain = 0
KMC6 051703Z 36025G32KT 11/05 A3015 RMK A01 T01090049  RH  066%=      5-min Rain = 0
KMC6 051704Z 00021G28KT 11/05 A3015 RMK A01 T01070048  RH  067%=      5-min Rain = 0
KMC6 051705Z 00022G31KT 11/05 A3015 RMK A01 T01070049  RH  067%=      5-min Rain = 0
KMC6 051706Z 35022G30KT 11/05 A3015 RMK A01 T01080050  RH  067%=      5-min Rain = 0
KMC6 051707Z 35023G30KT 11/05 A3015 RMK A01 T01090051  RH  067%=      5-min Rain = 0
KMC6 051708Z 35023G29KT 11/05 A3015 RMK A01 T01090050  RH  067%=      5-min Rain = 0
KMC6 051709Z 35021G27KT 11/05 A3015 RMK A01 T01090049  RH  067%=      5-min Rain = 0
KMC6 051710Z 35024G30KT 11/05 A3015 RMK A01 T01080049  RH  067%=      5-min Rain = 0
KMC6 051711Z 36023G29KT 11/05 A3015 RMK A01 T01090050  RH  067%=      5-min Rain = 0
KMC6 051712Z 00020KT 11/05 A3015 RMK A01 T01100050  RH  067%=      5-min Rain = 0
KMC6 051713Z 36019G25KT 11/05 A3015 RMK A01 T01120051  RH  066%=      5-min Rain = 0
KMC6 051714Z 35018G23KT 11/05 A3015 RMK A01 T01130052  RH  066%=      5-min Rain = 0
KMC6 051715Z 35020G25KT 11/05 A3015 RMK A01 T01140052  RH  066%=      5-min Rain = 0
KMC6 051716Z 35019G27KT 12/05 A3015 RMK A01 T01160053  RH  065%=      5-min Rain = 0
KMC6 051717Z 00023G30KT 12/05 A3015 RMK A01 T01160051  RH  064%=      5-min Rain = 0
KMC6 051718Z 35023G28KT 11/05 A3015 RMK A01 T01140050  RH  064%=      5-min Rain = 0
KMC6 051719Z 35021G26KT 11/05 A3015 RMK A01 T01140051  RH  065%=      5-min Rain = 0
KMC6 051720Z 35021G30KT 12/05 A3015 RMK A01 T01180054  RH  065%=      5-min Rain = 0
KMC6 051721Z 35023G29KT 12/05 A3015 RMK A01 T01190051  RH  063%=      5-min Rain = 0
KMC6 051722Z 35023G28KT 12/05 A3015 RMK A01 T01180051  RH  063%=      5-min Rain = 0
KMC6 051723Z 35020G26KT 12/05 A3015 RMK A01 T01170050  RH  064%=      5-min Rain = 0
KMC6 051724Z 35019G25KT 12/05 A3015 RMK A01 T01200053  RH  064%=      5-min Rain = 0
KMC6 051725Z 34022G28KT 12/05 A3015 RMK A01 T01220054  RH  063%=      5-min Rain = 0
KMC6 051726Z 35019KT 12/05 A3015 RMK A01 T01220054  RH  063%=      5-min Rain = 0
KMC6 051727Z 34021G27KT 13/06 A3015 RMK A01 T01250055  RH  063%=      5-min Rain = 0
KMC6 051728Z 34022KT 13/05 A3015 RMK A01 T01260052  RH  061%=      5-min Rain = 0
KMC6 051729Z 35020G30KT 13/05 A3015 RMK A01 T01250051  RH  061%=      5-min Rain = 0
KMC6 051730Z 35020G28KT 13/05 A3015 RMK A01 T01250051  RH  061%=      5-min Rain = 0
KMC6 051731Z 35021G27KT 12/05 A3016 RMK A01 T01240050  RH  061%=      5-min Rain = 0
KMC6 051732Z 34020KT 12/05 A3016 RMK A01 T01230051  RH  061%=      5-min Rain = 0
KMC6 051733Z 34021G26KT 12/05 A3016 RMK A01 T01210051  RH  063%=      5-min Rain = 0
KMC6 051734Z 34027G32KT 12/05 A3016 RMK A01 T01170050  RH  063%=      5-min Rain = 0
KMC6 051735Z 34021G30KT 11/05 A3016 RMK A01 T01140050  RH  065%=      5-min Rain = 0
KMC6 051736Z 34022G30KT 12/05 A3016 RMK A01 T01150053  RH  066%=      5-min Rain = 0
KMC6 051737Z 34024G30KT 12/05 A3016 RMK A01 T01170053  RH  065%=      5-min Rain = 0
KMC6 051738Z 35023G30KT 12/05 A3016 RMK A01 T01170053  RH  065%=      5-min Rain = 0
KMC6 051739Z 35022G28KT 12/05 A3016 RMK A01 T01170051  RH  064%=      5-min Rain = 0
KMC6 051740Z 34022G27KT 12/05 A3016 RMK A01 T01170052  RH  064%=      5-min Rain = 0
KMC6 051741Z 34022G27KT 12/05 A3016 RMK A01 T01150051  RH  065%=      5-min Rain = 0
KMC6 051742Z 34020G30KT 12/05 A3016 RMK A01 T01150052  RH  065%=      5-min Rain = 0
KMC6 051743Z 34021G26KT 12/05 A3016 RMK A01 T01160053  RH  065%=      5-min Rain = 0
KMC6 051744Z 34023G28KT 11/05 A3016 RMK A01 T01140051  RH  065%=      5-min Rain = 0
KMC6 051745Z 34020G26KT 11/05 A3016 RMK A01 T01110051  RH  066%=      5-min Rain = 0
KMC6 051746Z 35020G26KT 11/05 A3017 RMK A01 T01090051  RH  067%=      5-min Rain = 0
KMC6 051747Z 35018G24KT 11/05 A3016 RMK A01 T01080051  RH  068%=      5-min Rain = 0
KMC6 051748Z 34020G26KT 11/05 A3016 RMK A01 T01070051  RH  068%=      5-min Rain = 0
KMC6 051749Z 34023G28KT 11/05 A3016 RMK A01 T01070050  RH  068%=      5-min Rain = 0
KMC6 051750Z 34019G24KT 11/05 A3016 RMK A01 T01060051  RH  068%=      5-min Rain = 0
KMC6 051751Z 34018G23KT 11/05 A3016 RMK A01 T01060051  RH  069%=      5-min Rain = 0
KMC6 051752Z 34022KT 11/05 A3016 RMK A01 T01070051  RH  068%=      5-min Rain = 0
KMC6 051753Z 34020G25KT 11/05 A3016 RMK A01 T01060051  RH  069%=      5-min Rain = 0
KMC6 051754Z 34018G26KT 11/05 A3016 RMK A01 T01050051  RH  069%=      5-min Rain = 0
KMC6 051755Z 34024G30KT 11/05 A3017 RMK A01 T01050052  RH  069%=      5-min Rain = 0
KMC6 051756Z 35024G30KT 10/05 A3017 RMK A01 T01040052  RH  070%=      5-min Rain = 0
KMC6 051757Z 34022G30KT 10/05 A3017 RMK A01 T01020052  RH  071%=      5-min Rain = 0
KMC6 051758Z 35022G30KT 10/05 A3017 RMK A01 T01020052  RH  071%=      5-min Rain = 0
KMC6 051759Z 35021G28KT 10/05 A3017 RMK A01 T01020052  RH  072%=      5-min Rain = 0
KMC6 051800Z 35018G25KT 10/05 A3017 RMK A01 T01020053  RH  072%=      5-min Rain = 0
KMC6 051801Z 35020G30KT 10/05 A3017 RMK A01 T01020054  RH  072%=      5-min Rain = 0
KMC6 051802Z 35024G30KT 10/05 A3017 RMK A01 T01010053  RH  072%=      5-min Rain = 0
KMC6 051803Z 35019G24KT 10/05 A3017 RMK A01 T01000053  RH  072%=      5-min Rain = 0
KMC6 051804Z 35021G29KT 10/05 A3017 RMK A01 T00990052  RH  072%=      5-min Rain = 0
KMC6 051805Z 35022G30KT 10/05 A3017 RMK A01 T00990052  RH  072%=      5-min Rain = 0
KMC6 051806Z 35023G30KT 10/05 A3017 RMK A01 T00990051  RH  072%=      5-min Rain = 0
KMC6 051807Z 35021G29KT 10/05 A3017 RMK A01 T00980050  RH  072%=      5-min Rain = 0
KMC6 051808Z 35018G25KT 10/05 A3017 RMK A01 T00970050  RH  072%=      5-min Rain = 0
KMC6 051809Z 35019G29KT 10/05 A3017 RMK A01 T00980049  RH  071%=      5-min Rain = 0
KMC6 051810Z 35020G26KT 10/05 A3017 RMK A01 T00990047  RH  070%=      5-min Rain = 0
KMC6 051811Z 35024G30KT 10/05 A3017 RMK A01 T00990047  RH  070%=      5-min Rain = 0
KMC6 051812Z 35020G25KT 10/05 A3017 RMK A01 T00990047  RH  070%=      5-min Rain = 0
KMC6 051813Z 35023G29KT 10/05 A3017 RMK A01 T01000047  RH  069%=      5-min Rain = 0
KMC6 051814Z 36025G30KT 10/05 A3017 RMK A01 T01000046  RH  069%=      5-min Rain = 0
KMC6 051815Z 36019G25KT 10/05 A3017 RMK A01 T01000046  RH  069%=      5-min Rain = 0
KMC6 051816Z 36019G25KT 10/05 A3017 RMK A01 T01010046  RH  069%=      5-min Rain = 0
KMC6 051817Z 36019G29KT 10/05 A3017 RMK A01 T01030046  RH  068%=      5-min Rain = 0
KMC6 051818Z 36023G30KT 10/04 A3017 RMK A01 T01030044  RH  067%=      5-min Rain = 0
KMC6 051819Z 00021G29KT 10/04 A3017 RMK A01 T01040044  RH  067%=      5-min Rain = 0
KMC6 051820Z 00022G30KT 11/05 A3017 RMK A01 T01050045  RH  066%=      5-min Rain = 0
KMC6 051821Z 35025G31KT 11/05 A3017 RMK A01 T01070046  RH  066%=      5-min Rain = 0
KMC6 051822Z 35025G32KT 11/04 A3017 RMK A01 T01070043  RH  065%=      5-min Rain = 0
KMC6 051823Z 35026G31KT 11/04 A3017 RMK A01 T01060044  RH  065%=      5-min Rain = 0
KMC6 051824Z 35022G30KT 11/05 A3017 RMK A01 T01080046  RH  066%=      5-min Rain = 0
KMC6 051825Z 35024G31KT 11/05 A3017 RMK A01 T01100046  RH  065%=      5-min Rain = 0
KMC6 051826Z 35027G33KT 11/04 A3017 RMK A01 T01100044  RH  064%=      5-min Rain = 0
KMC6 051827Z 36025G37KT 11/04 A3017 RMK A01 T01070041  RH  064%=      5-min Rain = 0
KMC6 051828Z 00027G32KT 11/04 A3017 RMK A01 T01060042  RH  065%=      5-min Rain = 0
KMC6 051829Z 00026G32KT 11/04 A3017 RMK A01 T01050042  RH  065%=      5-min Rain = 0
KMC6 051830Z 00027G33KT 10/04 A3017 RMK A01 T01040042  RH  065%=      5-min Rain = 0
KMC6 051831Z 00024G30KT 10/04 A3017 RMK A01 T01030043  RH  066%=      5-min Rain = 0
KMC6 051832Z 01024G32KT 10/04 A3017 RMK A01 T01030043  RH  066%=      5-min Rain = 0
KMC6 051833Z 01024G30KT 10/04 A3017 RMK A01 T01020043  RH  067%=      5-min Rain = 0
KMC6 051834Z 01027KT 10/04 A3017 RMK A01 T01020044  RH  067%=      5-min Rain = 0
KMC6 051835Z 01023G29KT 10/04 A3017 RMK A01 T01010044  RH  068%=      5-min Rain = 0
KMC6 051836Z 01025G34KT 10/04 A3017 RMK A01 T01010044  RH  068%=      5-min Rain = 0
KMC6 051837Z 01024G31KT 10/04 A3017 RMK A01 T01010044  RH  068%=      5-min Rain = 0
KMC6 051838Z 01023G28KT 10/04 A3018 RMK A01 T01000044  RH  068%=      5-min Rain = 0
KMC6 051839Z 01024G30KT 10/04 A3018 RMK A01 T01000043  RH  068%=      5-min Rain = 0
KMC6 051840Z 01025G31KT 10/04 A3018 RMK A01 T01000043  RH  068%=      5-min Rain = 0
KMC6 051841Z 01026G32KT 10/04 A3018 RMK A01 T00980043  RH  069%=      5-min Rain = 0
KMC6 051842Z 01021G28KT 10/04 A3018 RMK A01 T00970044  RH  070%=      5-min Rain = 0
KMC6 051843Z 01022G29KT 10/04 A3018 RMK A01 T00970044  RH  070%=      5-min Rain = 0
KMC6 051844Z 01025G32KT 10/04 A3018 RMK A01 T00970044  RH  070%=      5-min Rain = 0
KMC6 051845Z 01025G31KT 10/04 A3018 RMK A01 T00960044  RH  070%=      5-min Rain = 0
KMC6 051846Z 00023KT 10/04 A3018 RMK A01 T00950044  RH  070%=      5-min Rain = 0
KMC6 051847Z 00022G27KT 10/04 A3018 RMK A01 T00950044  RH  071%=      5-min Rain = 0
KMC6 051848Z 01019G27KT 10/05 A3018 RMK A01 T00960045  RH  071%=      5-min Rain = 0
KMC6 051849Z 01020G30KT 10/05 A3018 RMK A01 T00980046  RH  070%=      5-min Rain = 0
KMC6 051850Z 00023G28KT 10/04 A3018 RMK A01 T00990044  RH  069%=      5-min Rain = 0
KMC6 051851Z 01024G30KT 10/04 A3018 RMK A01 T01000044  RH  068%=      5-min Rain = 0
KMC6 051852Z 01022G27KT 10/05 A3018 RMK A01 T01020045  RH  068%=      5-min Rain = 0
KMC6 051853Z 01020G25KT 10/05 A3018 RMK A01 T01040046  RH  067%=      5-min Rain = 0
KMC6 051854Z 02020G25KT 11/05 A3018 RMK A01 T01050046  RH  067%=      5-min Rain = 0
KMC6 051855Z 02021G26KT 11/05 A3018 RMK A01 T01060046  RH  066%=      5-min Rain = 0
KMC6 051856Z 02021G26KT 11/05 A3018 RMK A01 T01060045  RH  066%=      5-min Rain = 0
KMC6 051857Z 02020G25KT 11/05 A3018 RMK A01 T01060045  RH  066%=      5-min Rain = 0
KMC6 051858Z 01023G28KT 11/05 A3018 RMK A01 T01060045  RH  066%=      5-min Rain = 0
KMC6 051859Z 01023KT 11/04 A3018 RMK A01 T01060043  RH  065%=      5-min Rain = 0
KMC6 051900Z 01023G30KT 11/04 A3018 RMK A01 T01060043  RH  065%=      5-min Rain = 0
KMC6 051901Z 01026KT 11/04 A3018 RMK A01 T01070042  RH  064%=      5-min Rain = 0
KMC6 051902Z 01022G29KT 11/04 A3018 RMK A01 T01060042  RH  064%=      5-min Rain = 0
KMC6 051903Z 00022G28KT 11/04 A3018 RMK A01 T01060041  RH  064%=      5-min Rain = 0
KMC6 051904Z 01025G31KT 11/05 A3018 RMK A01 T01100045  RH  064%=      5-min Rain = 0
KMC6 051905Z 01024G30KT 12/04 A3018 RMK A01 T01150044  RH  062%=      5-min Rain = 0
KMC6 051906Z 01018G25KT 11/04 A3018 RMK A01 T01140042  RH  061%=      5-min Rain = 0
KMC6 051907Z 02020G25KT 12/04 A3018 RMK A01 T01150042  RH  061%=      5-min Rain = 0
KMC6 051908Z 02021G27KT 11/04 A3018 RMK A01 T01130040  RH  061%=      5-min Rain = 0
KMC6 051909Z 02023G28KT 11/04 A3018 RMK A01 T01100039  RH  062%=      5-min Rain = 0
KMC6 051910Z 02024G30KT 11/04 A3018 RMK A01 T01080039  RH  062%=      5-min Rain = 0
KMC6 051911Z 02022G27KT 11/04 A3018 RMK A01 T01070039  RH  063%=      5-min Rain = 0
KMC6 051912Z 01022G30KT 11/04 A3018 RMK A01 T01070039  RH  063%=      5-min Rain = 0
KMC6 051913Z 01028G33KT 11/04 A3018 RMK A01 T01070036  RH  062%=      5-min Rain = 0
KMC6 051914Z 01024G30KT 11/04 A3018 RMK A01 T01050036  RH  062%=      5-min Rain = 0
KMC6 051915Z 01024G31KT 10/04 A3018 RMK A01 T01040036  RH  063%=      5-min Rain = 0
KMC6 051916Z 01023G29KT 11/04 A3018 RMK A01 T01050037  RH  063%=      5-min Rain = 0
KMC6 051917Z 01020G26KT 11/04 A3018 RMK A01 T01060038  RH  063%=      5-min Rain = 0
KMC6 051918Z 01022G29KT 11/04 A3018 RMK A01 T01080039  RH  062%=      5-min Rain = 0
KMC6 051919Z 01023G29KT 11/04 A3018 RMK A01 T01090039  RH  062%=      5-min Rain = 0
KMC6 051920Z 01023G29KT 11/04 A3018 RMK A01 T01090039  RH  062%=      5-min Rain = 0
KMC6 051921Z 01025KT 11/04 A3018 RMK A01 T01110039  RH  061%=      5-min Rain = 0
KMC6 051922Z 01021G28KT 11/04 A3018 RMK A01 T01090038  RH  061%=      5-min Rain = 0
KMC6 051923Z 01022G27KT 11/04 A3018 RMK A01 T01080038  RH  062%=      5-min Rain = 0
KMC6 051924Z 01023G29KT 11/04 A3018 RMK A01 T01080038  RH  062%=      5-min Rain = 0
KMC6 051925Z 01022G29KT 11/04 A3018 RMK A01 T01070038  RH  062%=      5-min Rain = 0
KMC6 051926Z 01026G33KT 11/04 A3018 RMK A01 T01080038  RH  062%=      5-min Rain = 0
KMC6 051927Z 01023G29KT 11/04 A3018 RMK A01 T01080036  RH  061%=      5-min Rain = 0
KMC6 051928Z 01026G35KT 11/04 A3018 RMK A01 T01080036  RH  061%=      5-min Rain = 0
KMC6 051929Z 01026G32KT 11/04 A3018 RMK A01 T01080036  RH  061%=      5-min Rain = 0
KMC6 051930Z 01022G30KT 11/04 A3018 RMK A01 T01080036  RH  061%=      5-min Rain = 0
KMC6 051931Z 00022G27KT 11/04 A3018 RMK A01 T01080036  RH  061%=      5-min Rain = 0
KMC6 051932Z 00019G27KT 11/04 A3018 RMK A01 T01080037  RH  061%=      5-min Rain = 0
KMC6 051933Z 36025G31KT 11/04 A3018 RMK A01 T01100037  RH  061%=      5-min Rain = 0
KMC6 051934Z 01025G30KT 11/04 A3018 RMK A01 T01090035  RH  060%=      5-min Rain = 0
KMC6 051935Z 00028G35KT 11/03 A3018 RMK A01 T01070034  RH  061%=      5-min Rain = 0
KMC6 051936Z 01025G33KT 11/03 A3018 RMK A01 T01060033  RH  061%=      5-min Rain = 0
KMC6 051937Z 01025G31KT 11/03 A3018 RMK A01 T01050034  RH  061%=      5-min Rain = 0
KMC6 051938Z 01024G29KT 11/03 A3018 RMK A01 T01050034  RH  062%=      5-min Rain = 0
KMC6 051939Z 01022G30KT 11/04 A3018 RMK A01 T01050035  RH  062%=      5-min Rain = 0
KMC6 051940Z 01023KT 10/04 A3018 RMK A01 T01040035  RH  062%=      5-min Rain = 0
KMC6 051941Z 01021G26KT 10/04 A3018 RMK A01 T01040035  RH  062%=      5-min Rain = 0
KMC6 051942Z 01022G30KT 10/04 A3018 RMK A01 T01040036  RH  062%=      5-min Rain = 0
KMC6 051943Z 01024G30KT 11/04 A3018 RMK A01 T01050035  RH  062%=      5-min Rain = 0
KMC6 051944Z 01020G27KT 11/04 A3018 RMK A01 T01050035  RH  062%=      5-min Rain = 0
KMC6 051945Z 01023KT 11/04 A3018 RMK A01 T01060035  RH  062%=      5-min Rain = 0
KMC6 051946Z 01021G27KT 11/04 A3018 RMK A01 T01060035  RH  061%=      5-min Rain = 0
KMC6 051947Z 00017G22KT 11/04 A3018 RMK A01 T01070035  RH  061%=      5-min Rain = 0
KMC6 051948Z 36017KT 11/04 A3018 RMK A01 T01070035  RH  061%=      5-min Rain = 0
KMC6 051949Z 00022G30KT 11/04 A3018 RMK A01 T01070035  RH  061%=      5-min Rain = 0
KMC6 051950Z 01022G31KT 11/03 A3018 RMK A01 T01070034  RH  060%=      5-min Rain = 0
KMC6 051951Z 01021G26KT 11/03 A3018 RMK A01 T01060034  RH  061%=      5-min Rain = 0
KMC6 051952Z 01022G29KT 11/03 A3018 RMK A01 T01060034  RH  061%=      5-min Rain = 0
KMC6 051953Z 01025G30KT 11/03 A3018 RMK A01 T01060033  RH  061%=      5-min Rain = 0
KMC6 051954Z 01023KT 11/03 A3018 RMK A01 T01050033  RH  061%=      5-min Rain = 0
KMC6 051955Z 01023G28KT 10/03 A3018 RMK A01 T01040033  RH  061%=      5-min Rain = 0
KMC6 051956Z 01021G26KT 10/03 A3018 RMK A01 T01040033  RH  061%=      5-min Rain = 0
KMC6 051957Z 02022G28KT 10/03 A3018 RMK A01 T01040033  RH  061%=      5-min Rain = 0
KMC6 051958Z 01022KT 10/03 A3018 RMK A01 T01040033  RH  061%=      5-min Rain = 0
KMC6 051959Z 01023G29KT 10/03 A3018 RMK A01 T01040033  RH  061%=      5-min Rain = 0
KMC6 052000Z 01023G28KT 10/03 A3018 RMK A01 T01030032  RH  061%=      5-min Rain = 0
KMC6 052001Z 02021G26KT 10/03 A3018 RMK A01 T01030032  RH  061%=      5-min Rain = 0
KMC6 052002Z 01020G27KT 10/03 A3018 RMK A01 T01040033  RH  061%=      5-min Rain = 0
KMC6 052003Z 01021G27KT 10/03 A3018 RMK A01 T01040033  RH  061%=      5-min Rain = 0
KMC6 052004Z 02021G27KT 10/03 A3018 RMK A01 T01040033  RH  061%=      5-min Rain = 0
KMC6 052005Z 02025G31KT 10/03 A3018 RMK A01 T01040033  RH  061%=      5-min Rain = 0
KMC6 052006Z 01023G30KT 10/03 A3018 RMK A01 T01040033  RH  061%=      5-min Rain = 0
KMC6 052007Z 02022G29KT 10/03 A3018 RMK A01 T01040034  RH  062%=      5-min Rain = 0
KMC6 052008Z 02025G31KT 10/03 A3018 RMK A01 T01040034  RH  062%=      5-min Rain = 0
KMC6 052009Z 02023G29KT 10/03 A3018 RMK A01 T01040034  RH  062%=      5-min Rain = 0
KMC6 052010Z 02026KT 10/03 A3018 RMK A01 T01030034  RH  062%=      5-min Rain = 0
KMC6 052011Z 01021G26KT 10/03 A3018 RMK A01 T01030034  RH  062%=      5-min Rain = 0
KMC6 052012Z 02022G28KT 10/03 A3018 RMK A01 T01020034  RH  063%=      5-min Rain = 0
KMC6 052013Z 01024G29KT 10/03 A3018 RMK A01 T01030034  RH  063%=      5-min Rain = 0
KMC6 052014Z 01020G26KT 10/03 A3018 RMK A01 T01020034  RH  063%=      5-min Rain = 0
KMC6 052015Z 02022G30KT 10/04 A3018 RMK A01 T01020035  RH  063%=      5-min Rain = 0
KMC6 052016Z 02027G32KT 10/04 A3018 RMK A01 T01010035  RH  063%=      5-min Rain = 0
KMC6 052017Z 02025G30KT 10/04 A3018 RMK A01 T01010035  RH  063%=      5-min Rain = 0
KMC6 052018Z 01024G29KT 10/04 A3018 RMK A01 T01010035  RH  064%=      5-min Rain = 0
KMC6 052019Z 01022KT 10/04 A3018 RMK A01 T01010035  RH  064%=      5-min Rain = 0
KMC6 052020Z 01023G29KT 10/04 A3018 RMK A01 T01010035  RH  064%=      5-min Rain = 0
KMC6 052021Z 02022G27KT 10/04 A3018 RMK A01 T01010035  RH  064%=      5-min Rain = 0
KMC6 052022Z 02022G28KT 10/04 A3018 RMK A01 T01010036  RH  064%=      5-min Rain = 0
KMC6 052023Z 02022G29KT 10/04 A3018 RMK A01 T01020036  RH  064%=      5-min Rain = 0
KMC6 052024Z 01017G23KT 10/04 A3018 RMK A01 T01020036  RH  064%=      5-min Rain = 0
KMC6 052025Z 01022KT 10/04 A3018 RMK A01 T01030036  RH  064%=      5-min Rain = 0
KMC6 052026Z 01022G28KT 10/04 A3018 RMK A01 T01030036  RH  063%=      5-min Rain = 0
KMC6 052027Z 01021G26KT 10/04 A3018 RMK A01 T01030037  RH  063%=      5-min Rain = 0
KMC6 052028Z 01021G27KT 10/04 A3018 RMK A01 T01040037  RH  063%=      5-min Rain = 0
KMC6 052029Z 01025G30KT 11/04 A3018 RMK A01 T01050036  RH  063%=      5-min Rain = 0
KMC6 052030Z 01027KT 11/04 A3018 RMK A01 T01050036  RH  062%=      5-min Rain = 0
KMC6 052031Z 01024G30KT 11/03 A3018 RMK A01 T01050034  RH  062%=      5-min Rain = 0
KMC6 052032Z 01023G30KT 11/04 A3018 RMK A01 T01050035  RH  062%=      5-min Rain = 0
KMC6 052033Z 01023G29KT 11/04 A3018 RMK A01 T01050036  RH  062%=      5-min Rain = 0
KMC6 052034Z 01023G34KT 11/04 A3018 RMK A01 T01050035  RH  062%=      5-min Rain = 0
KMC6 052035Z 01026G31KT 11/03 A3018 RMK A01 T01050034  RH  062%=      5-min Rain = 0
KMC6 052036Z 01026G31KT 11/04 A3018 RMK A01 T01050035  RH  062%=      5-min Rain = 0
KMC6 052037Z 01024G29KT 11/04 A3018 RMK A01 T01060036  RH  062%=      5-min Rain = 0
KMC6 052038Z 01023G29KT 11/04 A3018 RMK A01 T01070037  RH  062%=      5-min Rain = 0
KMC6 052039Z 01023G28KT 11/04 A3018 RMK A01 T01090038  RH  061%=      5-min Rain = 0
KMC6 052040Z 01023G28KT 11/04 A3018 RMK A01 T01120039  RH  061%=      5-min Rain = 0
KMC6 052041Z 01024G30KT 11/04 A3018 RMK A01 T01140038  RH  060%=      5-min Rain = 0
KMC6 052042Z 01023G28KT 11/04 A3018 RMK A01 T01130037  RH  059%=      5-min Rain = 0
KMC6 052043Z 01020G25KT 11/04 A3018 RMK A01 T01120036  RH  060%=      5-min Rain = 0
KMC6 052044Z 00020G28KT 11/04 A3018 RMK A01 T01130037  RH  060%=      5-min Rain = 0
KMC6 052045Z 00024G29KT 11/04 A3018 RMK A01 T01120035  RH  059%=      5-min Rain = 0
KMC6 052046Z 01021G26KT 11/04 A3018 RMK A01 T01090035  RH  060%=      5-min Rain = 0
KMC6 052047Z 00020G25KT 11/04 A3018 RMK A01 T01080036  RH  061%=      5-min Rain = 0
KMC6 052048Z 01015G21KT 11/04 A3018 RMK A01 T01090036  RH  061%=      5-min Rain = 0
KMC6 052049Z 01018G24KT 11/04 A3018 RMK A01 T01110038  RH  060%=      5-min Rain = 0
KMC6 052050Z 01019G28KT 11/04 A3018 RMK A01 T01130037  RH  060%=      5-min Rain = 0
KMC6 052051Z 01019G25KT 11/04 A3018 RMK A01 T01130037  RH  059%=      5-min Rain = 0
KMC6 052052Z 01019G25KT 11/04 A3018 RMK A01 T01120037  RH  060%=      5-min Rain = 0
KMC6 052053Z 00021G27KT 11/04 A3018 RMK A01 T01120037  RH  060%=      5-min Rain = 0
KMC6 052054Z 00022G28KT 11/04 A3018 RMK A01 T01130037  RH  059%=      5-min Rain = 0
KMC6 052055Z 36020G27KT 11/04 A3018 RMK A01 T01130037  RH  059%=      5-min Rain = 0
KMC6 052056Z 00022G30KT 11/04 A3019 RMK A01 T01130036  RH  059%=      5-min Rain = 0
KMC6 052057Z 01026G34KT 11/04 A3019 RMK A01 T01140036  RH  059%=      5-min Rain = 0
KMC6 052058Z 01026G38KT 11/04 A3019 RMK A01 T01130035  RH  059%=      5-min Rain = 0
KMC6 052059Z 01026G31KT 11/04 A3019 RMK A01 T01120036  RH  059%=      5-min Rain = 0
KMC6 052100Z 01027G32KT 11/04 A3019 RMK A01 T01120036  RH  059%=      5-min Rain = 0
KMC6 052101Z 01026G33KT 11/04 A3019 RMK A01 T01110035  RH  060%=      5-min Rain = 0
KMC6 052102Z 01027G32KT 11/04 A3019 RMK A01 T01110036  RH  060%=      5-min Rain = 0
KMC6 052103Z 02027G33KT 11/04 A3019 RMK A01 T01110037  RH  060%=      5-min Rain = 0
KMC6 052104Z 02025G33KT 11/04 A3019 RMK A01 T01120037  RH  060%=      5-min Rain = 0
KMC6 052105Z 01024G30KT 11/04 A3018 RMK A01 T01130038  RH  060%=      5-min Rain = 0
KMC6 052106Z 01021KT 12/04 A3019 RMK A01 T01160039  RH  059%=      5-min Rain = 0
KMC6 052107Z 01021G28KT 12/04 A3019 RMK A01 T01180040  RH  059%=      5-min Rain = 0
KMC6 052108Z 01019G27KT 12/04 A3019 RMK A01 T01200041  RH  058%=      5-min Rain = 0
KMC6 052109Z 02020G26KT 12/04 A3019 RMK A01 T01230043  RH  058%=      5-min Rain = 0
KMC6 052110Z 02021G26KT 12/04 A3019 RMK A01 T01220040  RH  057%=      5-min Rain = 0
KMC6 052111Z 01021G28KT 12/04 A3019 RMK A01 T01200039  RH  058%=      5-min Rain = 0
KMC6 052112Z 01025G30KT 12/04 A3019 RMK A01 T01180038  RH  058%=      5-min Rain = 0
KMC6 052113Z 01026KT 12/04 A3019 RMK A01 T01150036  RH  058%=      5-min Rain = 0
KMC6 052114Z 01021G26KT 11/04 A3019 RMK A01 T01120036  RH  059%=      5-min Rain = 0
KMC6 052115Z 01020G26KT 11/04 A3019 RMK A01 T01110036  RH  060%=      5-min Rain = 0
KMC6 052116Z 01017KT 11/04 A3019 RMK A01 T01110037  RH  060%=      5-min Rain = 0
KMC6 052117Z 02021G27KT 11/04 A3019 RMK A01 T01110037  RH  060%=      5-min Rain = 0
KMC6 052118Z 02024G31KT 11/04 A3019 RMK A01 T01100036  RH  061%=      5-min Rain = 0
KMC6 052119Z 02023KT 11/04 A3019 RMK A01 T01070036  RH  062%=      5-min Rain = 0
KMC6 052120Z 02024G29KT 11/04 A3019 RMK A01 T01050037  RH  062%=      5-min Rain = 0
KMC6 052121Z 01021G26KT 11/04 A3019 RMK A01 T01050037  RH  063%=      5-min Rain = 0
KMC6 052122Z 01019G25KT 10/04 A3019 RMK A01 T01040037  RH  063%=      5-min Rain = 0
KMC6 052123Z 01020G25KT 11/04 A3019 RMK A01 T01050037  RH  063%=      5-min Rain = 0
KMC6 052124Z 01023G30KT 11/04 A3019 RMK A01 T01050037  RH  063%=      5-min Rain = 0
KMC6 052125Z 01023G30KT 10/04 A3019 RMK A01 T01040037  RH  063%=      5-min Rain = 0
KMC6 052126Z 01021G27KT 10/04 A3019 RMK A01 T01030038  RH  064%=      5-min Rain = 0
KMC6 052127Z 01022KT 10/04 A3019 RMK A01 T01040038  RH  064%=      5-min Rain = 0
KMC6 052128Z 01022KT 10/04 A3019 RMK A01 T01040038  RH  064%=      5-min Rain = 0
KMC6 052129Z 01020G26KT 11/04 A3019 RMK A01 T01050039  RH  064%=      5-min Rain = 0
KMC6 052130Z 01020G25KT 11/04 A302 RMK A01 T01050039  RH  064%=      5-min Rain = 0
KMC6 052131Z 01022G27KT 11/04 A302 RMK A01 T01050039  RH  064%=      5-min Rain = 0
KMC6 052132Z 01022G27KT 10/04 A302 RMK A01 T01040039  RH  064%=      5-min Rain = 0
KMC6 052133Z 01021G28KT 10/04 A302 RMK A01 T01030039  RH  064%=      5-min Rain = 0
KMC6 052134Z 02020KT 10/04 A302 RMK A01 T01030039  RH  064%=      5-min Rain = 0
KMC6 052135Z 01019KT 10/04 A302 RMK A01 T01030039  RH  065%=      5-min Rain = 0
KMC6 052136Z 02015G23KT 10/04 A302 RMK A01 T01030039  RH  065%=      5-min Rain = 0
KMC6 052137Z 02020G28KT 10/04 A302 RMK A01 T01040040  RH  064%=      5-min Rain = 0
KMC6 052138Z 02022G27KT 10/04 A302 RMK A01 T01030039  RH  065%=      5-min Rain = 0
KMC6 052139Z 02019G24KT 10/04 A302 RMK A01 T01020040  RH  065%=      5-min Rain = 0
KMC6 052140Z 02019KT 10/04 A302 RMK A01 T01020041  RH  066%=      5-min Rain = 0
KMC6 052141Z 02021G26KT 10/04 A302 RMK A01 T01030042  RH  066%=      5-min Rain = 0
KMC6 052142Z 01020G26KT 10/04 A302 RMK A01 T01040042  RH  065%=      5-min Rain = 0
KMC6 052143Z 01017G23KT 11/04 A302 RMK A01 T01050042  RH  065%=      5-min Rain = 0
KMC6 052144Z 01020KT 11/04 A302 RMK A01 T01060043  RH  065%=      5-min Rain = 0
KMC6 052145Z 01019KT 11/04 A302 RMK A01 T01070043  RH  065%=      5-min Rain = 0
KMC6 052146Z 01017G22KT 11/04 A302 RMK A01 T01080044  RH  064%=      5-min Rain = 0
KMC6 052147Z 02019G25KT 11/04 A302 RMK A01 T01080043  RH  064%=      5-min Rain = 0
KMC6 052148Z 01018G23KT 11/04 A302 RMK A01 T01080043  RH  064%=      5-min Rain = 0
KMC6 052149Z 02018G23KT 11/04 A302 RMK A01 T01070043  RH  065%=      5-min Rain = 0
KMC6 052150Z 01016KT 11/04 A302 RMK A01 T01080044  RH  065%=      5-min Rain = 0
KMC6 052151Z 01019G24KT 11/04 A302 RMK A01 T01090044  RH  064%=      5-min Rain = 0
KMC6 052152Z 01018KT 11/04 A302 RMK A01 T01090043  RH  064%=      5-min Rain = 0
KMC6 052153Z 00016G23KT 11/04 A3021 RMK A01 T01080043  RH  064%=      5-min Rain = 0
KMC6 052154Z 00016G24KT 11/04 A302 RMK A01 T01080043  RH  064%=      5-min Rain = 0
KMC6 052155Z 00020G25KT 11/04 A3021 RMK A01 T01080042  RH  064%=      5-min Rain = 0
KMC6 052156Z 00020G27KT 11/04 A3021 RMK A01 T01080042  RH  064%=      5-min Rain = 0
KMC6 052157Z 01021G30KT 11/04 A3021 RMK A01 T01080041  RH  063%=      5-min Rain = 0
KMC6 052158Z 01017KT 11/04 A3021 RMK A01 T01070040  RH  063%=      5-min Rain = 0
KMC6 052159Z 01017G22KT 11/04 A3021 RMK A01 T01070041  RH  064%=      5-min Rain = 0
KMC6 052200Z 01020KT 11/04 A3021 RMK A01 T01090042  RH  063%=      5-min Rain = 0
KMC6 052201Z 01021G28KT 11/04 A3021 RMK A01 T01090042  RH  063%=      5-min Rain = 0
KMC6 052202Z 01022G27KT 11/04 A3021 RMK A01 T01090042  RH  063%=      5-min Rain = 0
KMC6 052203Z 01022G27KT 11/04 A3021 RMK A01 T01090041  RH  063%=      5-min Rain = 0
KMC6 052204Z 00020G25KT 11/04 A3021 RMK A01 T01090041  RH  063%=      5-min Rain = 0
KMC6 052205Z 01017KT 11/04 A3021 RMK A01 T01090043  RH  063%=      5-min Rain = 0
KMC6 052206Z 01018G23KT 11/04 A3021 RMK A01 T01120044  RH  063%=      5-min Rain = 0
KMC6 052207Z 01021G27KT 11/04 A3021 RMK A01 T01140044  RH  062%=      5-min Rain = 0
KMC6 052208Z 01024G29KT 12/04 A3021 RMK A01 T01150043  RH  061%=      5-min Rain = 0
KMC6 052209Z 00021G26KT 11/04 A3021 RMK A01 T01140041  RH  061%=      5-min Rain = 0
KMC6 052210Z 00023G29KT 11/04 A3021 RMK A01 T01130042  RH  062%=      5-min Rain = 0
KMC6 052211Z 01022G27KT 11/04 A3021 RMK A01 T01130041  RH  061%=      5-min Rain = 0
KMC6 052212Z 01021KT 11/04 A3021 RMK A01 T01120041  RH  062%=      5-min Rain = 0
KMC6 052213Z 00019G28KT 11/04 A3021 RMK A01 T01100038  RH  061%=      5-min Rain = 0
KMC6 052214Z 01025G31KT 11/04 A3021 RMK A01 T01100036  RH  060%=      5-min Rain = 0
KMC6 052215Z 01022G28KT 11/04 A3021 RMK A01 T01100036  RH  060%=      5-min Rain = 0
KMC6 052216Z 01019KT 11/04 A3021 RMK A01 T01110037  RH  060%=      5-min Rain = 0
KMC6 052217Z 01017G24KT 11/04 A3021 RMK A01 T01120039  RH  061%=      5-min Rain = 0
KMC6 052218Z 01021G28KT 12/04 A3021 RMK A01 T01150040  RH  060%=      5-min Rain = 0
KMC6 052219Z 01023KT 12/04 A3021 RMK A01 T01160037  RH  058%=      5-min Rain = 0
KMC6 052220Z 01023G30KT 11/04 A3022 RMK A01 T01140038  RH  059%=      5-min Rain = 0
KMC6 052221Z 02021G27KT 12/04 A3022 RMK A01 T01150039  RH  059%=      5-min Rain = 0
KMC6 052222Z 03021G26KT 12/04 A3022 RMK A01 T01160039  RH  059%=      5-min Rain = 0
KMC6 052223Z 01021G28KT 12/04 A3022 RMK A01 T01150040  RH  060%=      5-min Rain = 0
KMC6 052224Z 02022G28KT 12/04 A3022 RMK A01 T01160039  RH  059%=      5-min Rain = 0
KMC6 052225Z 02024G29KT 12/04 A3022 RMK A01 T01160038  RH  059%=      5-min Rain = 0
KMC6 052226Z 01024G30KT 11/04 A3022 RMK A01 T01140038  RH  059%=      5-min Rain = 0
KMC6 052227Z 01023KT 11/04 A3022 RMK A01 T01130038  RH  060%=      5-min Rain = 0
KMC6 052228Z 01018G25KT 11/04 A3022 RMK A01 T01120038  RH  060%=      5-min Rain = 0
KMC6 052229Z 01023G28KT 11/04 A3022 RMK A01 T01120037  RH  060%=      5-min Rain = 0
KMC6 052230Z 01020G26KT 11/04 A3022 RMK A01 T01120035  RH  059%=      5-min Rain = 0
KMC6 052231Z 02017G25KT 11/04 A3022 RMK A01 T01120035  RH  059%=      5-min Rain = 0
KMC6 052232Z 02019G24KT 11/04 A3022 RMK A01 T01120036  RH  059%=      5-min Rain = 0
KMC6 052233Z 02020G26KT 11/04 A3022 RMK A01 T01130037  RH  060%=      5-min Rain = 0
KMC6 052234Z 01021G27KT 11/04 A3022 RMK A01 T01120037  RH  060%=      5-min Rain = 0
KMC6 052235Z 01022G30KT 11/04 A3022 RMK A01 T01110035  RH  060%=      5-min Rain = 0
KMC6 052236Z 01023G29KT 11/04 A3022 RMK A01 T01100035  RH  060%=      5-min Rain = 0
KMC6 052237Z 01024G30KT 11/03 A3022 RMK A01 T01090034  RH  060%=      5-min Rain = 0
KMC6 052238Z 01026G33KT 11/03 A3023 RMK A01 T01080033  RH  060%=      5-min Rain = 0
KMC6 052239Z 01022G28KT 11/03 A3022 RMK A01 T01080033  RH  059%=      5-min Rain = 0
KMC6 052240Z 02021KT 11/03 A3022 RMK A01 T01080034  RH  060%=      5-min Rain = 0
KMC6 052241Z 02021G29KT 11/04 A3022 RMK A01 T01080035  RH  061%=      5-min Rain = 0
KMC6 052242Z 02024KT 11/04 A3022 RMK A01 T01070035  RH  061%=      5-min Rain = 0
KMC6 052243Z 01018G25KT 11/04 A3022 RMK A01 T01060036  RH  062%=      5-min Rain = 0
KMC6 052244Z 02020KT 11/04 A3022 RMK A01 T01060035  RH  062%=      5-min Rain = 0
KMC6 052245Z 01020KT 11/04 A3022 RMK A01 T01060036  RH  062%=      5-min Rain = 0
KMC6 052246Z 01019KT 11/04 A3022 RMK A01 T01070036  RH  062%=      5-min Rain = 0
KMC6 052247Z 01022G29KT 11/04 A3022 RMK A01 T01070036  RH  062%=      5-min Rain = 0
KMC6 052248Z 01021G26KT 11/04 A3022 RMK A01 T01070036  RH  062%=      5-min Rain = 0
KMC6 052249Z 01021G26KT 11/04 A3022 RMK A01 T01070037  RH  062%=      5-min Rain = 0
KMC6 052250Z 01020G25KT 11/04 A3022 RMK A01 T01070036  RH  062%=      5-min Rain = 0
KMC6 052251Z 01020KT 11/04 A3022 RMK A01 T01070037  RH  062%=      5-min Rain = 0
KMC6 052252Z 01016G21KT 11/04 A3022 RMK A01 T01060037  RH  062%=      5-min Rain = 0
KMC6 052253Z 01016G21KT 11/04 A3022 RMK A01 T01060037  RH  062%=      5-min Rain = 0
KMC6 052254Z 02014G19KT 11/04 A3022 RMK A01 T01070038  RH  062%=      5-min Rain = 0
KMC6 052255Z 02017KT 11/04 A3022 RMK A01 T01070038  RH  062%=      5-min Rain = 0
KMC6 052256Z 02019G24KT 11/04 A3022 RMK A01 T01070037  RH  062%=      5-min Rain = 0
KMC6 052257Z 01020G25KT 11/04 A3022 RMK A01 T01070037  RH  062%=      5-min Rain = 0
KMC6 052258Z 02020KT 11/04 A3022 RMK A01 T01060037  RH  062%=      5-min Rain = 0
KMC6 052259Z 02017KT 11/04 A3023 RMK A01 T01060038  RH  063%=      5-min Rain = 0
KMC6 052300Z 02017G23KT 11/04 A3023 RMK A01 T01060038  RH  063%=      5-min Rain = 0
KMC6 052301Z 01019G24KT 11/04 A3023 RMK A01 T01070038  RH  062%=      5-min Rain = 0
KMC6 052302Z 01019KT 11/04 A3023 RMK A01 T01070038  RH  062%=      5-min Rain = 0
KMC6 052303Z 01017G22KT 11/04 A3023 RMK A01 T01070038  RH  063%=      5-min Rain = 0
KMC6 052304Z 02019KT 11/04 A3023 RMK A01 T01070039  RH  062%=      5-min Rain = 0
KMC6 052305Z 02017KT 11/04 A3023 RMK A01 T01070039  RH  063%=      5-min Rain = 0
KMC6 052306Z 02014G19KT 11/04 A3023 RMK A01 T01070039  RH  063%=      5-min Rain = 0
KMC6 052307Z 02016KT 11/04 A3023 RMK A01 T01070039  RH  063%=      5-min Rain = 0
KMC6 052308Z 02016G22KT 11/04 A3023 RMK A01 T01080039  RH  063%=      5-min Rain = 0
KMC6 052309Z 02016KT 11/04 A3023 RMK A01 T01080039  RH  062%=      5-min Rain = 0
KMC6 052310Z 01013G18KT 11/04 A3023 RMK A01 T01080039  RH  062%=      5-min Rain = 0
KMC6 052311Z 01015KT 11/04 A3023 RMK A01 T01080039  RH  063%=      5-min Rain = 0
KMC6 052312Z 02015G20KT 11/04 A3023 RMK A01 T01080039  RH  062%=      5-min Rain = 0
KMC6 052313Z 02018G24KT 11/04 A3023 RMK A01 T01080038  RH  062%=      5-min Rain = 0
KMC6 052314Z 03018KT 11/04 A3023 RMK A01 T01080037  RH  061%=      5-min Rain = 0
KMC6 052315Z 02018G23KT 11/04 A3023 RMK A01 T01080037  RH  061%=      5-min Rain = 0
KMC6 052316Z 02016KT 11/04 A3023 RMK A01 T01080037  RH  062%=      5-min Rain = 0
KMC6 052317Z 02016KT 11/04 A3023 RMK A01 T01070037  RH  062%=      5-min Rain = 0
KMC6 052318Z 02015KT 11/04 A3023 RMK A01 T01070036  RH  061%=      5-min Rain = 0
KMC6 052319Z 02016G21KT 11/04 A3023 RMK A01 T01070037  RH  062%=      5-min Rain = 0
KMC6 052320Z 02019KT 11/04 A3023 RMK A01 T01070037  RH  062%=      5-min Rain = 0
KMC6 052321Z 02019KT 11/04 A3023 RMK A01 T01070037  RH  062%=      5-min Rain = 0
KMC6 052322Z 02018KT 11/04 A3023 RMK A01 T01070037  RH  062%=      5-min Rain = 0
KMC6 052323Z 02019KT 11/04 A3023 RMK A01 T01070036  RH  062%=      5-min Rain = 0
KMC6 052324Z 02018G23KT 11/04 A3023 RMK A01 T01070036  RH  062%=      5-min Rain = 0
KMC6 052325Z 02019KT 11/04 A3023 RMK A01 T01070036  RH  062%=      5-min Rain = 0
KMC6 052326Z 02018G23KT 11/04 A3023 RMK A01 T01070036  RH  061%=      5-min Rain = 0
KMC6 052327Z 02018KT 11/04 A3023 RMK A01 T01070036  RH  061%=      5-min Rain = 0
KMC6 052328Z 02016KT 11/04 A3023 RMK A01 T01070036  RH  061%=      5-min Rain = 0
KMC6 052329Z 02013KT 11/04 A3023 RMK A01 T01080036  RH  061%=      5-min Rain = 0
KMC6 052330Z 02014G19KT 11/04 A3023 RMK A01 T01080037  RH  061%=      5-min Rain = 0
KMC6 052331Z 02015KT 11/04 A3023 RMK A01 T01090037  RH  061%=      5-min Rain = 0
KMC6 052332Z 02015KT 11/04 A3023 RMK A01 T01100037  RH  061%=      5-min Rain = 0
KMC6 052333Z 02013G18KT 11/04 A3023 RMK A01 T01100037  RH  061%=      5-min Rain = 0
KMC6 052334Z 02014KT 11/04 A3023 RMK A01 T01110037  RH  061%=      5-min Rain = 0
KMC6 052335Z 02014G19KT 11/04 A3023 RMK A01 T01110037  RH  060%=      5-min Rain = 0
KMC6 052336Z 02016KT 11/04 A3023 RMK A01 T01120037  RH  060%=      5-min Rain = 0
KMC6 052337Z 03018G25KT 11/04 A3023 RMK A01 T01130035  RH  059%=      5-min Rain = 0
KMC6 052338Z 01019G28KT 11/04 A3023 RMK A01 T01120035  RH  059%=      5-min Rain = 0
KMC6 052339Z 02020KT 11/03 A3023 RMK A01 T01120034  RH  059%=      5-min Rain = 0
KMC6 052340Z 02019G24KT 11/03 A3023 RMK A01 T01120033  RH  058%=      5-min Rain = 0
KMC6 052341Z 02018G23KT 11/03 A3023 RMK A01 T01120034  RH  059%=      5-min Rain = 0
KMC6 052342Z 02019G24KT 11/03 A3023 RMK A01 T01120034  RH  059%=      5-min Rain = 0
KMC6 052343Z 03018G23KT 11/04 A3023 RMK A01 T01140035  RH  058%=      5-min Rain = 0
KMC6 052344Z 02021KT 12/04 A3024 RMK A01 T01150035  RH  058%=      5-min Rain = 0
KMC6 052345Z 02021G26KT 12/03 A3024 RMK A01 T01150034  RH  058%=      5-min Rain = 0
KMC6 052346Z 02020KT 11/03 A3024 RMK A01 T01140034  RH  058%=      5-min Rain = 0
KMC6 052347Z 02018KT 11/03 A3024 RMK A01 T01140034  RH  058%=      5-min Rain = 0
KMC6 052348Z 02020KT 11/03 A3024 RMK A01 T01120033  RH  058%=      5-min Rain = 0
KMC6 052349Z 02020KT 11/03 A3024 RMK A01 T01110033  RH  059%=      5-min Rain = 0
KMC6 052350Z 02020G25KT 11/03 A3024 RMK A01 T01100033  RH  059%=      5-min Rain = 0
KMC6 052351Z 02019KT 11/03 A3024 RMK A01 T01090033  RH  059%=      5-min Rain = 0
KMC6 052352Z 02016KT 11/03 A3024 RMK A01 T01090033  RH  060%=      5-min Rain = 0
KMC6 052353Z 02016G22KT 11/03 A3024 RMK A01 T01080033  RH  060%=      5-min Rain = 0
KMC6 052354Z 02019KT 11/03 A3024 RMK A01 T01090034  RH  060%=      5-min Rain = 0
KMC6 052355Z 02020KT 11/03 A3024 RMK A01 T01100034  RH  060%=      5-min Rain = 0
KMC6 052356Z 02018G23KT 11/03 A3024 RMK A01 T01100034  RH  059%=      5-min Rain = 0
KMC6 052357Z 02015G20KT 11/03 A3024 RMK A01 T01090033  RH  059%=      5-min Rain = 0
KMC6 052358Z 02013KT 11/03 A3024 RMK A01 T01080033  RH  060%=      5-min Rain = 0
KMC6 052359Z 02020G26KT 11/03 A3024 RMK A01 T01080033  RH  060%=      5-min Rain = 0
KMC6 060000Z 02019G24KT 11/03 A3024 RMK A01 T01080033  RH  060%=      5-min Rain = 0
KMC6 060001Z 02020G27KT 11/03 A3024 RMK A01 T01080033  RH  060%=      5-min Rain = 0
KMC6 060002Z 02020G25KT 11/03 A3024 RMK A01 T01070033  RH  060%=      5-min Rain = 0
KMC6 060003Z 02018G23KT 11/03 A3024 RMK A01 T01070033  RH  060%=      5-min Rain = 0
KMC6 060004Z 01019KT 11/03 A3024 RMK A01 T01070032  RH  060%=      5-min Rain = 0
KMC6 060005Z 02019KT 11/03 A3024 RMK A01 T01060032  RH  060%=      5-min Rain = 0
KMC6 060006Z 02017G23KT 11/03 A3024 RMK A01 T01060032  RH  060%=      5-min Rain = 0
KMC6 060007Z 02015KT 11/03 A3024 RMK A01 T01050032  RH  060%=      5-min Rain = 0
KMC6 060008Z 03015KT 11/03 A3024 RMK A01 T01050032  RH  060%=      5-min Rain = 0
KMC6 060009Z 02018G25KT 11/03 A3024 RMK A01 T01050032  RH  061%=      5-min Rain = 0
KMC6 060010Z 02021KT 10/03 A3024 RMK A01 T01040031  RH  061%=      5-min Rain = 0
KMC6 060011Z 02017KT 10/03 A3024 RMK A01 T01040031  RH  061%=      5-min Rain = 0
KMC6 060012Z 02021KT 10/03 A3024 RMK A01 T01040031  RH  061%=      5-min Rain = 0
KMC6 060013Z 02019KT 10/03 A3024 RMK A01 T01040031  RH  061%=      5-min Rain = 0
KMC6 060014Z 02016KT 10/03 A3024 RMK A01 T01040032  RH  061%=      5-min Rain = 0
KMC6 060015Z 02017KT 10/03 A3025 RMK A01 T01040031  RH  061%=      5-min Rain = 0
KMC6 060016Z 02017KT 10/03 A3025 RMK A01 T01030031  RH  061%=      5-min Rain = 0
KMC6 060017Z 02016KT 10/03 A3025 RMK A01 T01030031  RH  061%=      5-min Rain = 0
KMC6 060018Z 02016KT 10/03 A3025 RMK A01 T01030032  RH  061%=      5-min Rain = 0
KMC6 060019Z 02014KT 10/03 A3025 RMK A01 T01030032  RH  061%=      5-min Rain = 0
KMC6 060020Z 02012KT 10/03 A3025 RMK A01 T01030032  RH  061%=      5-min Rain = 0
KMC6 060021Z 02011KT 10/03 A3025 RMK A01 T01020031  RH  061%=      5-min Rain = 0
KMC6 060022Z 02012KT 10/03 A3025 RMK A01 T01020031  RH  062%=      5-min Rain = 0
KMC6 060023Z 02014G19KT 10/03 A3025 RMK A01 T01010031  RH  062%=      5-min Rain = 0
KMC6 060024Z 02014KT 10/03 A3025 RMK A01 T01010032  RH  062%=      5-min Rain = 0
KMC6 060025Z 02013KT 10/03 A3025 RMK A01 T01010032  RH  062%=      5-min Rain = 0
KMC6 060026Z 02013KT 10/03 A3025 RMK A01 T01010032  RH  062%=      5-min Rain = 0
KMC6 060027Z 03010KT 10/03 A3025 RMK A01 T01010032  RH  062%=      5-min Rain = 0
KMC6 060028Z 02012KT 10/03 A3025 RMK A01 T01000031  RH  062%=      5-min Rain = 0
KMC6 060029Z 02010KT 10/03 A3025 RMK A01 T00990031  RH  062%=      5-min Rain = 0
KMC6 060030Z 02010KT 10/03 A3025 RMK A01 T00990030  RH  062%=      5-min Rain = 0
KMC6 060031Z 02010KT 10/03 A3025 RMK A01 T00980030  RH  063%=      5-min Rain = 0
KMC6 060032Z 03010KT 10/03 A3025 RMK A01 T00980030  RH  063%=      5-min Rain = 0
KMC6 060033Z 02011KT 10/03 A3025 RMK A01 T00970030  RH  063%=      5-min Rain = 0
KMC6 060034Z 03014KT 10/03 A3025 RMK A01 T00970031  RH  063%=      5-min Rain = 0
KMC6 060035Z 03016KT 10/03 A3025 RMK A01 T00980031  RH  063%=      5-min Rain = 0
KMC6 060036Z 03014KT 10/03 A3025 RMK A01 T00980031  RH  063%=      5-min Rain = 0
KMC6 060037Z 03015KT 10/03 A3025 RMK A01 T00980031  RH  063%=      5-min Rain = 0
KMC6 060038Z 03013KT 10/03 A3025 RMK A01 T00980031  RH  063%=      5-min Rain = 0
KMC6 060039Z 03014KT 10/03 A3025 RMK A01 T00980031  RH  063%=      5-min Rain = 0
KMC6 060040Z 03013KT 10/03 A3025 RMK A01 T00980031  RH  063%=      5-min Rain = 0
KMC6 060041Z 03012KT 10/03 A3025 RMK A01 T00970030  RH  063%=      5-min Rain = 0
KMC6 060042Z 03013G18KT 10/03 A3026 RMK A01 T00970030  RH  063%=      5-min Rain = 0
KMC6 060043Z 03012KT 10/03 A3026 RMK A01 T00960030  RH  064%=      5-min Rain = 0
KMC6 060044Z 03012G17KT 10/03 A3026 RMK A01 T00960030  RH  064%=      5-min Rain = 0
KMC6 060045Z 02014KT 10/03 A3026 RMK A01 T00950030  RH  064%=      5-min Rain = 0
KMC6 060046Z 03012KT 10/03 A3026 RMK A01 T00950030  RH  064%=      5-min Rain = 0
KMC6 060047Z 03011KT 10/03 A3026 RMK A01 T00950030  RH  064%=      5-min Rain = 0
KMC6 060048Z 03013KT 09/03 A3026 RMK A01 T00940030  RH  064%=      5-min Rain = 0
KMC6 060049Z 02013KT 09/03 A3026 RMK A01 T00940030  RH  064%=      5-min Rain = 0
KMC6 060050Z 02012KT 09/03 A3026 RMK A01 T00940030  RH  064%=      5-min Rain = 0
KMC6 060051Z 02013KT 09/03 A3026 RMK A01 T00940030  RH  064%=      5-min Rain = 0
KMC6 060052Z 03012KT 09/03 A3026 RMK A01 T00940030  RH  064%=      5-min Rain = 0
KMC6 060053Z 03013KT 09/03 A3026 RMK A01 T00930030  RH  065%=      5-min Rain = 0
KMC6 060054Z 03011KT 09/03 A3026 RMK A01 T00930030  RH  065%=      5-min Rain = 0
KMC6 060055Z 03013KT 09/03 A3026 RMK A01 T00930030  RH  065%=      5-min Rain = 0
KMC6 060056Z 03011KT 09/03 A3026 RMK A01 T00930030  RH  065%=      5-min Rain = 0
KMC6 060057Z 03011KT 09/03 A3026 RMK A01 T00930030  RH  065%=      5-min Rain = 0
KMC6 060058Z 03011KT 09/03 A3026 RMK A01 T00920030  RH  065%=      5-min Rain = 0
KMC6 060059Z 03011KT 09/03 A3026 RMK A01 T00910030  RH  065%=      5-min Rain = 0
KMC6 060100Z 03011KT 09/03 A3026 RMK A01 T00900029  RH  065%=      5-min Rain = 0
KMC6 060101Z 03012KT 09/03 A3026 RMK A01 T00900030  RH  066%=      5-min Rain = 0
KMC6 060102Z 03011KT 09/03 A3026 RMK A01 T00900030  RH  066%=      5-min Rain = 0
KMC6 060103Z 03011KT 09/03 A3026 RMK A01 T00900029  RH  066%=      5-min Rain = 0
KMC6 060104Z 03012KT 09/03 A3026 RMK A01 T00890030  RH  066%=      5-min Rain = 0
KMC6 060105Z 03010KT 09/03 A3026 RMK A01 T00890030  RH  066%=      5-min Rain = 0
KMC6 060106Z 03011KT 09/03 A3027 RMK A01 T00880029  RH  066%=      5-min Rain = 0
KMC6 060107Z 03010KT 09/03 A3027 RMK A01 T00880029  RH  067%=      5-min Rain = 0
KMC6 060108Z 03009KT 09/03 A3027 RMK A01 T00870029  RH  067%=      5-min Rain = 0
KMC6 060109Z 04010KT 09/03 A3027 RMK A01 T00860028  RH  067%=      5-min Rain = 0
KMC6 060110Z 03009KT 09/03 A3027 RMK A01 T00860029  RH  067%=      5-min Rain = 0
KMC6 060111Z 04009KT 09/03 A3027 RMK A01 T00850028  RH  067%=      5-min Rain = 0
KMC6 060112Z 04009KT 08/03 A3027 RMK A01 T00840028  RH  068%=      5-min Rain = 0
KMC6 060113Z 04008KT 08/03 A3027 RMK A01 T00830028  RH  068%=      5-min Rain = 0
KMC6 060114Z 04008KT 08/03 A3027 RMK A01 T00820028  RH  068%=      5-min Rain = 0
KMC6 060115Z 03009KT 08/03 A3027 RMK A01 T00820028  RH  069%=      5-min Rain = 0
KMC6 060116Z 04009KT 08/03 A3027 RMK A01 T00810029  RH  069%=      5-min Rain = 0
KMC6 060117Z 03009KT 08/03 A3027 RMK A01 T00810029  RH  069%=      5-min Rain = 0
KMC6 060118Z 04009KT 08/03 A3027 RMK A01 T00820029  RH  069%=      5-min Rain = 0
KMC6 060119Z 04008KT 08/03 A3027 RMK A01 T00820029  RH  069%=      5-min Rain = 0
KMC6 060120Z 04008KT 08/03 A3027 RMK A01 T00810028  RH  069%=      5-min Rain = 0
KMC6 060121Z 03008KT 08/03 A3027 RMK A01 T00800028  RH  070%=      5-min Rain = 0
KMC6 060122Z 04009KT 08/03 A3027 RMK A01 T00800028  RH  070%=      5-min Rain = 0
KMC6 060123Z 04009KT 08/03 A3027 RMK A01 T00790028  RH  070%=      5-min Rain = 0
KMC6 060124Z 04008KT 08/03 A3027 RMK A01 T00790028  RH  070%=      5-min Rain = 0
KMC6 060125Z 04009KT 08/03 A3027 RMK A01 T00780028  RH  071%=      5-min Rain = 0
KMC6 060126Z 04009KT 08/03 A3027 RMK A01 T00780028  RH  071%=      5-min Rain = 0
KMC6 060127Z 04008KT 08/03 A3027 RMK A01 T00780028  RH  071%=      5-min Rain = 0
KMC6 060128Z 04008KT 08/03 A3027 RMK A01 T00770029  RH  071%=      5-min Rain = 0
KMC6 060129Z 03009KT 08/03 A3027 RMK A01 T00770029  RH  072%=      5-min Rain = 0
KMC6 060130Z 03009KT 08/03 A3027 RMK A01 T00780029  RH  071%=      5-min Rain = 0
KMC6 060131Z 03009KT 08/03 A3027 RMK A01 T00780029  RH  071%=      5-min Rain = 0
KMC6 060132Z 03009KT 08/03 A3027 RMK A01 T00780030  RH  072%=      5-min Rain = 0
KMC6 060133Z 03009KT 08/03 A3027 RMK A01 T00780030  RH  071%=      5-min Rain = 0
KMC6 060134Z 03009KT 08/03 A3027 RMK A01 T00790030  RH  071%=      5-min Rain = 0
KMC6 060135Z 03008KT 08/03 A3027 RMK A01 T00790030  RH  071%=      5-min Rain = 0
KMC6 060136Z 03008KT 08/03 A3027 RMK A01 T00780030  RH  071%=      5-min Rain = 0
KMC6 060137Z 03008KT 08/03 A3028 RMK A01 T00780029  RH  071%=      5-min Rain = 0
KMC6 060138Z 03008KT 08/03 A3028 RMK A01 T00770029  RH  071%=      5-min Rain = 0
KMC6 060139Z 03008KT 08/03 A3028 RMK A01 T00770029  RH  072%=      5-min Rain = 0
KMC6 060140Z 03008KT 08/03 A3028 RMK A01 T00760029  RH  072%=      5-min Rain = 0
KMC6 060141Z 03008KT 08/03 A3028 RMK A01 T00760029  RH  072%=      5-min Rain = 0
KMC6 060142Z 03008KT 08/03 A3028 RMK A01 T00760029  RH  072%=      5-min Rain = 0
KMC6 060143Z 03008KT 08/03 A3028 RMK A01 T00760029  RH  072%=      5-min Rain = 0
KMC6 060144Z 03008KT 08/03 A3028 RMK A01 T00750029  RH  072%=      5-min Rain = 0
KMC6 060145Z 03008KT 08/03 A3028 RMK A01 T00750030  RH  073%=      5-min Rain = 0
KMC6 060146Z 03008KT 08/03 A3028 RMK A01 T00750029  RH  073%=      5-min Rain = 0
KMC6 060147Z 03008KT 08/03 A3028 RMK A01 T00750029  RH  073%=      5-min Rain = 0
KMC6 060148Z 03007KT 08/03 A3028 RMK A01 T00750029  RH  073%=      5-min Rain = 0
KMC6 060149Z 03008KT 07/03 A3028 RMK A01 T00740028  RH  073%=      5-min Rain = 0
KMC6 060150Z 03008KT 07/03 A3028 RMK A01 T00740029  RH  073%=      5-min Rain = 0
KMC6 060151Z 03009KT 07/03 A3028 RMK A01 T00740029  RH  073%=      5-min Rain = 0
KMC6 060152Z 03008KT 07/03 A3028 RMK A01 T00740030  RH  073%=      5-min Rain = 0
KMC6 060153Z 03008KT 07/03 A3028 RMK A01 T00740029  RH  073%=      5-min Rain = 0
KMC6 060154Z 03008KT 07/03 A3028 RMK A01 T00730029  RH  073%=      5-min Rain = 0
KMC6 060155Z 03008KT 07/03 A3028 RMK A01 T00730029  RH  074%=      5-min Rain = 0
KMC6 060156Z 03009KT 07/03 A3028 RMK A01 T00730029  RH  074%=      5-min Rain = 0
KMC6 060157Z 03009KT 07/03 A3028 RMK A01 T00720029  RH  074%=      5-min Rain = 0
KMC6 060158Z 03009KT 07/03 A3028 RMK A01 T00720029  RH  074%=      5-min Rain = 0
KMC6 060159Z 03009KT 07/03 A3028 RMK A01 T00720029  RH  074%=      5-min Rain = 0
KMC6 060200Z 03008KT 07/03 A3028 RMK A01 T00720028  RH  074%=      5-min Rain = 0
KMC6 060201Z 03009KT 07/03 A3028 RMK A01 T00720028  RH  074%=      5-min Rain = 0
KMC6 060202Z 03009KT 07/03 A3028 RMK A01 T00710028  RH  074%=      5-min Rain = 0
KMC6 060203Z 03009KT 07/03 A3028 RMK A01 T00710028  RH  074%=      5-min Rain = 0
KMC6 060204Z 03008KT 07/03 A3028 RMK A01 T00710028  RH  074%=      5-min Rain = 0
KMC6 060205Z 03008KT 07/03 A3028 RMK A01 T00700027  RH  074%=      5-min Rain = 0
KMC6 060206Z 03009KT 07/03 A3028 RMK A01 T00700027  RH  074%=      5-min Rain = 0
KMC6 060207Z 03009KT 07/03 A3028 RMK A01 T00700028  RH  075%=      5-min Rain = 0
KMC6 060208Z 03008KT 07/03 A3028 RMK A01 T00700028  RH  075%=      5-min Rain = 0
KMC6 060209Z 03009KT 07/03 A3028 RMK A01 T00690028  RH  075%=      5-min Rain = 0
KMC6 060210Z 03008KT 07/03 A3029 RMK A01 T00690028  RH  075%=      5-min Rain = 0
KMC6 060211Z 03008KT 07/03 A3029 RMK A01 T00690028  RH  075%=      5-min Rain = 0
KMC6 060212Z 03009KT 07/03 A3028 RMK A01 T00690029  RH  075%=      5-min Rain = 0
KMC6 060213Z 03008KT 07/03 A3029 RMK A01 T00700029  RH  075%=      5-min Rain = 0
KMC6 060214Z 03009KT 07/03 A3029 RMK A01 T00700029  RH  075%=      5-min Rain = 0
KMC6 060215Z 03008KT 07/03 A3029 RMK A01 T00700029  RH  075%=      5-min Rain = 0
KMC6 060216Z 03008KT 07/03 A3029 RMK A01 T00700029  RH  075%=      5-min Rain = 0
KMC6 060217Z 03008KT 07/03 A3029 RMK A01 T00700029  RH  075%=      5-min Rain = 0
KMC6 060218Z 03008KT 07/03 A3029 RMK A01 T00700029  RH  075%=      5-min Rain = 0
KMC6 060219Z 03008KT 07/03 A3029 RMK A01 T00700029  RH  075%=      5-min Rain = 0
KMC6 060220Z 03009KT 07/03 A3029 RMK A01 T00700029  RH  075%=      5-min Rain = 0
KMC6 060221Z 03009KT 07/03 A3029 RMK A01 T00700029  RH  075%=      5-min Rain = 0
KMC6 060222Z 02008KT 07/03 A3029 RMK A01 T00700029  RH  075%=      5-min Rain = 0
KMC6 060223Z 02008KT 07/03 A3029 RMK A01 T00700029  RH  075%=      5-min Rain = 0
KMC6 060224Z 02008KT 07/03 A3029 RMK A01 T00700029  RH  075%=      5-min Rain = 0
KMC6 060225Z 02008KT 07/03 A3029 RMK A01 T00700029  RH  075%=      5-min Rain = 0
KMC6 060226Z 02008KT 07/03 A3029 RMK A01 T00690029  RH  075%=      5-min Rain = 0
KMC6 060227Z 02008KT 07/03 A3029 RMK A01 T00690028  RH  075%=      5-min Rain = 0
KMC6 060228Z 02008KT 07/03 A3029 RMK A01 T00680028  RH  076%=      5-min Rain = 0
KMC6 060229Z 02008KT 07/03 A3029 RMK A01 T00680028  RH  076%=      5-min Rain = 0
KMC6 060230Z 01008KT 07/03 A3029 RMK A01 T00670027  RH  075%=      5-min Rain = 0
KMC6 060231Z 01008KT 07/03 A3029 RMK A01 T00660026  RH  076%=      5-min Rain = 0
KMC6 060232Z 02008KT 07/03 A3029 RMK A01 T00650026  RH  076%=      5-min Rain = 0
KMC6 060233Z 02008KT 06/03 A3029 RMK A01 T00640025  RH  076%=      5-min Rain = 0
KMC6 060234Z 01007KT 06/03 A3029 RMK A01 T00640026  RH  077%=      5-min Rain = 0
KMC6 060235Z 01007KT 06/03 A3029 RMK A01 T00640026  RH  076%=      5-min Rain = 0
KMC6 060236Z 01007KT 06/02 A303 RMK A01 T00630024  RH  076%=      5-min Rain = 0
KMC6 060237Z 01007KT 06/02 A303 RMK A01 T00620023  RH  076%=      5-min Rain = 0
KMC6 060238Z 01007KT 06/02 A303 RMK A01 T00610024  RH  077%=      5-min Rain = 0
KMC6 060239Z 01007KT 06/02 A303 RMK A01 T00610024  RH  077%=      5-min Rain = 0
KMC6 060240Z 01007KT 06/02 A303 RMK A01 T00610024  RH  077%=      5-min Rain = 0
KMC6 060241Z 01007KT 06/02 A303 RMK A01 T00600024  RH  078%=      5-min Rain = 0
KMC6 060242Z 01008KT 06/03 A303 RMK A01 T00600025  RH  078%=      5-min Rain = 0
KMC6 060243Z 01007KT 06/03 A303 RMK A01 T00600025  RH  078%=      5-min Rain = 0
KMC6 060244Z 01008KT 06/03 A303 RMK A01 T00600025  RH  078%=      5-min Rain = 0
KMC6 060245Z 01008KT 06/03 A303 RMK A01 T00600025  RH  078%=      5-min Rain = 0
KMC6 060246Z 01008KT 06/03 A303 RMK A01 T00600026  RH  078%=      5-min Rain = 0
KMC6 060247Z 01008KT 06/03 A303 RMK A01 T00610025  RH  078%=      5-min Rain = 0
KMC6 060248Z 01008KT 06/02 A303 RMK A01 T00610024  RH  078%=      5-min Rain = 0
KMC6 060249Z 01008KT 06/03 A303 RMK A01 T00600025  RH  078%=      5-min Rain = 0
KMC6 060250Z 01008KT 06/02 A303 RMK A01 T00600024  RH  078%=      5-min Rain = 0
KMC6 060251Z 01008KT 06/02 A303 RMK A01 T00590024  RH  078%=      5-min Rain = 0
KMC6 060252Z 01008KT 06/02 A303 RMK A01 T00590023  RH  078%=      5-min Rain = 0
KMC6 060253Z 01008KT 06/02 A303 RMK A01 T00580023  RH  078%=      5-min Rain = 0
KMC6 060254Z 01008KT 06/02 A303 RMK A01 T00580023  RH  078%=      5-min Rain = 0
KMC6 060255Z 01008KT 06/02 A303 RMK A01 T00580024  RH  079%=      5-min Rain = 0
KMC6 060256Z 01007KT 06/02 A303 RMK A01 T00580023  RH  079%=      5-min Rain = 0
KMC6 060257Z 01007KT 06/02 A303 RMK A01 T00570022  RH  078%=      5-min Rain = 0
KMC6 060258Z 01007KT 06/02 A303 RMK A01 T00560022  RH  078%=      5-min Rain = 0
KMC6 060259Z 01007KT 06/02 A303 RMK A01 T00550021  RH  079%=      5-min Rain = 0
KMC6 060300Z 01006KT 06/02 A303 RMK A01 T00550021  RH  079%=      5-min Rain = 0
KMC6 060301Z 01006KT 05/02 A303 RMK A01 T00540021  RH  079%=      5-min Rain = 0
KMC6 060302Z 00007KT 05/02 A303 RMK A01 T00530021  RH  079%=      5-min Rain = 0
KMC6 060303Z 00006KT 05/02 A303 RMK A01 T00530021  RH  080%=      5-min Rain = 0
KMC6 060304Z 01007KT 05/02 A303 RMK A01 T00530021  RH  080%=      5-min Rain = 0
KMC6 060305Z 00007KT 05/02 A303 RMK A01 T00520022  RH  081%=      5-min Rain = 0
KMC6 060306Z 00007KT 05/02 A303 RMK A01 T00520023  RH  081%=      5-min Rain = 0
KMC6 060307Z 00007KT 05/02 A303 RMK A01 T00530023  RH  081%=      5-min Rain = 0
KMC6 060308Z 00007KT 05/02 A303 RMK A01 T00530023  RH  081%=      5-min Rain = 0
KMC6 060309Z 01007KT 05/02 A303 RMK A01 T00530023  RH  081%=      5-min Rain = 0
KMC6 060310Z 01007KT 05/02 A303 RMK A01 T00530023  RH  081%=      5-min Rain = 0
KMC6 060311Z 01007KT 05/02 A303 RMK A01 T00530024  RH  082%=      5-min Rain = 0
KMC6 060312Z 00007KT 05/02 A303 RMK A01 T00540024  RH  081%=      5-min Rain = 0
KMC6 060313Z 01007KT 05/02 A303 RMK A01 T00540023  RH  080%=      5-min Rain = 0
KMC6 060314Z 00007KT 05/02 A303 RMK A01 T00530022  RH  081%=      5-min Rain = 0
KMC6 060315Z 00007KT 05/02 A303 RMK A01 T00530023  RH  081%=      5-min Rain = 0
KMC6 060316Z 00007KT 05/02 A303 RMK A01 T00530024  RH  081%=      5-min Rain = 0
KMC6 060317Z 00007KT 05/02 A303 RMK A01 T00530024  RH  081%=      5-min Rain = 0
KMC6 060318Z 00007KT 05/02 A303 RMK A01 T00530023  RH  081%=      5-min Rain = 0
KMC6 060319Z 01007KT 05/02 A303 RMK A01 T00530023  RH  081%=      5-min Rain = 0
KMC6 060320Z 00007KT 05/02 A303 RMK A01 T00520023  RH  081%=      5-min Rain = 0
KMC6 060321Z 00007KT 05/02 A303 RMK A01 T00520023  RH  082%=      5-min Rain = 0
KMC6 060322Z 00007KT 05/02 A303 RMK A01 T00520023  RH  082%=      5-min Rain = 0
KMC6 060323Z 00007KT 05/02 A3031 RMK A01 T00520023  RH  081%=      5-min Rain = 0
KMC6 060324Z 01008KT 05/02 A3031 RMK A01 T00520023  RH  082%=      5-min Rain = 0
KMC6 060325Z 00007KT 05/02 A3031 RMK A01 T00520024  RH  082%=      5-min Rain = 0
KMC6 060326Z 01008KT 05/02 A3031 RMK A01 T00520023  RH  081%=      5-min Rain = 0
KMC6 060327Z 01008KT 05/02 A3031 RMK A01 T00520024  RH  082%=      5-min Rain = 0
KMC6 060328Z 00008KT 05/02 A3031 RMK A01 T00520023  RH  082%=      5-min Rain = 0
KMC6 060329Z 00008KT 05/02 A3031 RMK A01 T00520023  RH  082%=      5-min Rain = 0
KMC6 060330Z 01009KT 05/02 A3031 RMK A01 T00520023  RH  082%=      5-min Rain = 0
KMC6 060331Z 01008KT 05/02 A3031 RMK A01 T00520024  RH  082%=      5-min Rain = 0
KMC6 060332Z 01008KT 05/02 A3031 RMK A01 T00520024  RH  082%=      5-min Rain = 0
KMC6 060333Z 01008KT 05/03 A3031 RMK A01 T00520025  RH  083%=      5-min Rain = 0
KMC6 060334Z 01008KT 05/02 A3031 RMK A01 T00520024  RH  082%=      5-min Rain = 0
KMC6 060335Z 01008KT 05/02 A3031 RMK A01 T00530024  RH  082%=      5-min Rain = 0
KMC6 060336Z 01009KT 05/02 A3031 RMK A01 T00520022  RH  081%=      5-min Rain = 0
KMC6 060337Z 01008KT 05/02 A3031 RMK A01 T00520022  RH  081%=      5-min Rain = 0
KMC6 060338Z 01008KT 05/02 A3031 RMK A01 T00510020  RH  081%=      5-min Rain = 0
KMC6 060339Z 01008KT 05/02 A3031 RMK A01 T00500020  RH  081%=      5-min Rain = 0
KMC6 060340Z 01008KT 05/02 A3031 RMK A01 T00490020  RH  081%=      5-min Rain = 0
KMC6 060341Z 01008KT 05/02 A3031 RMK A01 T00480019  RH  081%=      5-min Rain = 0
KMC6 060342Z 01008KT 05/02 A3031 RMK A01 T00480019  RH  082%=      5-min Rain = 0
KMC6 060343Z 01008KT 05/02 A3031 RMK A01 T00480021  RH  083%=      5-min Rain = 0
KMC6 060344Z 01008KT 05/02 A3031 RMK A01 T00480021  RH  083%=      5-min Rain = 0
KMC6 060345Z 01008KT 05/02 A3031 RMK A01 T00480020  RH  082%=      5-min Rain = 0
KMC6 060346Z 01008KT 05/02 A3031 RMK A01 T00480020  RH  082%=      5-min Rain = 0
KMC6 060347Z 02009KT 05/02 A3031 RMK A01 T00480021  RH  083%=      5-min Rain = 0
KMC6 060348Z 02009KT 05/02 A3031 RMK A01 T00490024  RH  084%=      5-min Rain = 0
KMC6 060349Z 02009KT 05/02 A3031 RMK A01 T00500024  RH  083%=      5-min Rain = 0
KMC6 060350Z 02008KT 05/02 A3031 RMK A01 T00500022  RH  082%=      5-min Rain = 0
KMC6 060351Z 02008KT 05/02 A3031 RMK A01 T00500023  RH  083%=      5-min Rain = 0
KMC6 060352Z 02009KT 05/03 A3031 RMK A01 T00510025  RH  083%=      5-min Rain = 0
KMC6 060353Z 01008KT 05/03 A3031 RMK A01 T00520025  RH  083%=      5-min Rain = 0
KMC6 060354Z 01008KT 05/02 A3031 RMK A01 T00520023  RH  082%=      5-min Rain = 0
KMC6 060355Z 01008KT 05/02 A3031 RMK A01 T00510022  RH  082%=      5-min Rain = 0
KMC6 060356Z 02009KT 05/02 A3031 RMK A01 T00510023  RH  082%=      5-min Rain = 0
KMC6 060357Z 01009KT 05/02 A3031 RMK A01 T00500023  RH  083%=      5-min Rain = 0
KMC6 060358Z 01008KT 05/02 A3031 RMK A01 T00510024  RH  083%=      5-min Rain = 0
KMC6 060359Z 01008KT 05/02 A3031 RMK A01 T00510023  RH  082%=      5-min Rain = 0
KMC6 060400Z 01009KT 05/02 A3031 RMK A01 T00510024  RH  083%=      5-min Rain = 0
KMC6 060401Z 01009KT 05/02 A3031 RMK A01 T00510024  RH  083%=      5-min Rain = 0
KMC6 060402Z 02009KT 05/02 A3031 RMK A01 T00510023  RH  082%=      5-min Rain = 0
KMC6 060403Z 02009KT 05/02 A3031 RMK A01 T00500022  RH  082%=      5-min Rain = 0
KMC6 060404Z 02009KT 05/02 A3031 RMK A01 T00490023  RH  083%=      5-min Rain = 0
KMC6 060405Z 02009KT 05/02 A3031 RMK A01 T00490023  RH  083%=      5-min Rain = 0
KMC6 060406Z 02007KT 05/03 A3031 RMK A01 T00500025  RH  084%=      5-min Rain = 0
KMC6 060407Z 02008KT 05/03 A3031 RMK A01 T00510025  RH  083%=      5-min Rain = 0
KMC6 060408Z 02007KT 05/03 A3031 RMK A01 T00510025  RH  083%=      5-min Rain = 0
KMC6 060409Z 02007KT 05/03 A3031 RMK A01 T00510025  RH  083%=      5-min Rain = 0
KMC6 060410Z 02007KT 05/02 A3031 RMK A01 T00510024  RH  083%=      5-min Rain = 0
KMC6 060411Z 02008KT 05/02 A3032 RMK A01 T00500023  RH  082%=      5-min Rain = 0
KMC6 060412Z 02007KT 05/02 A3032 RMK A01 T00500023  RH  083%=      5-min Rain = 0
KMC6 060413Z 02008KT 05/02 A3032 RMK A01 T00490023  RH  083%=      5-min Rain = 0
KMC6 060414Z 02008KT 05/03 A3032 RMK A01 T00490025  RH  084%=      5-min Rain = 0
KMC6 060415Z 02007KT 05/03 A3032 RMK A01 T00500026  RH  085%=      5-min Rain = 0
KMC6 060416Z 02008KT 05/03 A3032 RMK A01 T00500026  RH  084%=      5-min Rain = 0
KMC6 060417Z 02007KT 05/03 A3032 RMK A01 T00510027  RH  084%=      5-min Rain = 0
KMC6 060418Z 03007KT 05/03 A3032 RMK A01 T00520027  RH  084%=      5-min Rain = 0
KMC6 060419Z 03008KT 05/03 A3032 RMK A01 T00520028  RH  084%=      5-min Rain = 0
KMC6 060420Z 03007KT 05/03 A3032 RMK A01 T00530028  RH  084%=      5-min Rain = 0
KMC6 060421Z 03007KT 05/03 A3032 RMK A01 T00530028  RH  084%=      5-min Rain = 0
KMC6 060422Z 03007KT 05/03 A3032 RMK A01 T00530028  RH  084%=      5-min Rain = 0
KMC6 060423Z 03007KT 05/03 A3032 RMK A01 T00530027  RH  083%=      5-min Rain = 0
KMC6 060424Z 03007KT 05/03 A3032 RMK A01 T00520026  RH  083%=      5-min Rain = 0
KMC6 060425Z 03007KT 05/03 A3032 RMK A01 T00510025  RH  083%=      5-min Rain = 0
KMC6 060426Z 03008KT 05/03 A3032 RMK A01 T00500025  RH  084%=      5-min Rain = 0
KMC6 060427Z 03007KT 05/03 A3032 RMK A01 T00490026  RH  085%=      5-min Rain = 0
KMC6 060428Z 03008KT 05/03 A3032 RMK A01 T00490027  RH  085%=      5-min Rain = 0
KMC6 060429Z 03008KT 05/03 A3032 RMK A01 T00500026  RH  085%=      5-min Rain = 0
KMC6 060430Z 03008KT 05/03 A3032 RMK A01 T00500026  RH  085%=      5-min Rain = 0
KMC6 060431Z 03008KT 05/03 A3032 RMK A01 T00500026  RH  085%=      5-min Rain = 0
KMC6 060432Z 03008KT 05/03 A3032 RMK A01 T00500026  RH  085%=      5-min Rain = 0
KMC6 060433Z 03008KT 05/03 A3032 RMK A01 T00500026  RH  085%=      5-min Rain = 0
KMC6 060434Z 03008KT 05/03 A3032 RMK A01 T00500026  RH  085%=      5-min Rain = 0
KMC6 060435Z 03008KT 05/03 A3032 RMK A01 T00500026  RH  085%=      5-min Rain = 0
KMC6 060436Z 03008KT 05/03 A3032 RMK A01 T00490026  RH  085%=      5-min Rain = 0
KMC6 060437Z 03008KT 05/03 A3032 RMK A01 T00490026  RH  085%=      5-min Rain = 0
KMC6 060438Z 03008KT 05/03 A3032 RMK A01 T00490026  RH  085%=      5-min Rain = 0
KMC6 060439Z 02008KT 05/03 A3032 RMK A01 T00490025  RH  084%=      5-min Rain = 0
KMC6 060440Z 02008KT 05/02 A3032 RMK A01 T00480023  RH  084%=      5-min Rain = 0
KMC6 060441Z 02007KT 05/02 A3032 RMK A01 T00470023  RH  085%=      5-min Rain = 0
KMC6 060442Z 02008KT 05/02 A3032 RMK A01 T00460023  RH  085%=      5-min Rain = 0
KMC6 060443Z 02007KT 05/02 A3033 RMK A01 T00450023  RH  085%=      5-min Rain = 0
KMC6 060444Z 02007KT 05/02 A3033 RMK A01 T00450023  RH  085%=      5-min Rain = 0
KMC6 060445Z 02006KT 05/02 A3033 RMK A01 T00450022  RH  085%=      5-min Rain = 0
KMC6 060446Z 02006KT 04/02 A3033 RMK A01 T00440022  RH  085%=      5-min Rain = 0
KMC6 060447Z 02006KT 04/02 A3033 RMK A01 T00440021  RH  085%=      5-min Rain = 0
KMC6 060448Z 01005KT 04/02 A3033 RMK A01 T00430020  RH  085%=      5-min Rain = 0
KMC6 060449Z 01006KT 04/02 A3033 RMK A01 T00420019  RH  085%=      5-min Rain = 0
KMC6 060450Z 01006KT 04/02 A3033 RMK A01 T00420019  RH  085%=      5-min Rain = 0
KMC6 060451Z 01005KT 04/02 A3033 RMK A01 T00410020  RH  086%=      5-min Rain = 0
KMC6 060452Z 01005KT 04/02 A3033 RMK A01 T00410019  RH  085%=      5-min Rain = 0
KMC6 060453Z 01005KT 04/02 A3033 RMK A01 T00400018  RH  086%=      5-min Rain = 0
KMC6 060454Z 01005KT 04/02 A3033 RMK A01 T00390018  RH  086%=      5-min Rain = 0
KMC6 060455Z 01005KT 04/02 A3033 RMK A01 T00380018  RH  086%=      5-min Rain = 0
KMC6 060456Z 01005KT 04/02 A3033 RMK A01 T00380017  RH  087%=      5-min Rain = 0
KMC6 060457Z 01006KT 04/02 A3033 RMK A01 T00370017  RH  087%=      5-min Rain = 0
KMC6 060458Z 01006KT 04/02 A3033 RMK A01 T00370018  RH  087%=      5-min Rain = 0
KMC6 060459Z 01006KT 04/02 A3033 RMK A01 T00370018  RH  087%=      5-min Rain = 0
KMC6 060500Z 01006KT 04/02 A3033 RMK A01 T00360016  RH  087%=      5-min Rain = 0
KMC6 060501Z 01006KT 04/02 A3033 RMK A01 T00350016  RH  087%=      5-min Rain = 0
KMC6 060502Z 01007KT 03/02 A3033 RMK A01 T00340015  RH  087%=      5-min Rain = 0
KMC6 060503Z 01007KT 03/01 A3033 RMK A01 T00330014  RH  087%=      5-min Rain = 0
KMC6 060504Z 01007KT 03/01 A3032 RMK A01 T00320013  RH  087%=      5-min Rain = 0
KMC6 060505Z 01007KT 03/01 A3032 RMK A01 T00310012  RH  087%=      5-min Rain = 0
KMC6 060506Z 01007KT 03/01 A3032 RMK A01 T00300010  RH  087%=      5-min Rain = 0
KMC6 060507Z 02007KT 03/01 A3032 RMK A01 T00290009  RH  087%=      5-min Rain = 0
KMC6 060508Z 02007KT 03/01 A3033 RMK A01 T00280010  RH  087%=      5-min Rain = 0
KMC6 060509Z 02007KT 03/01 A3033 RMK A01 T00280011  RH  088%=      5-min Rain = 0
KMC6 060510Z 02007KT 03/01 A3033 RMK A01 T00280012  RH  089%=      5-min Rain = 0
KMC6 060511Z 02006KT 03/01 A3033 RMK A01 T00290012  RH  089%=      5-min Rain = 0
KMC6 060512Z 02006KT 03/01 A3033 RMK A01 T00290013  RH  089%=      5-min Rain = 0
KMC6 060513Z 02006KT 03/01 A3033 RMK A01 T00290014  RH  089%=      5-min Rain = 0
KMC6 060514Z 02005KT 03/01 A3033 RMK A01 T00300014  RH  089%=      5-min Rain = 0
KMC6 060515Z 02006KT 03/02 A3033 RMK A01 T00300015  RH  090%=      5-min Rain = 0
KMC6 060516Z 02006KT 03/02 A3033 RMK A01 T00320017  RH  090%=      5-min Rain = 0
KMC6 060517Z 02005KT 03/02 A3033 RMK A01 T00320016  RH  089%=      5-min Rain = 0
KMC6 060518Z 02004KT 03/01 A3033 RMK A01 T00310011  RH  087%=      5-min Rain = 0
KMC6 060519Z 02004KT 03/01 A3033 RMK A01 T00290009  RH  087%=      5-min Rain = 0
KMC6 060520Z 02005KT 03/01 A3033 RMK A01 T00280010  RH  088%=      5-min Rain = 0
KMC6 060521Z 02005KT 03/01 A3033 RMK A01 T00270011  RH  089%=      5-min Rain = 0
KMC6 060522Z 02005KT 03/01 A3033 RMK A01 T00270011  RH  089%=      5-min Rain = 0
KMC6 060523Z 02005KT 03/01 A3033 RMK A01 T00270010  RH  089%=      5-min Rain = 0
KMC6 060524Z 02005KT 03/01 A3033 RMK A01 T00270011  RH  089%=      5-min Rain = 0
KMC6 060525Z 02005KT 03/01 A3033 RMK A01 T00260011  RH  090%=      5-min Rain = 0
KMC6 060526Z 02005KT 03/01 A3033 RMK A01 T00260011  RH  090%=      5-min Rain = 0
KMC6 060527Z 01005KT 03/01 A3033 RMK A01 T00260011  RH  090%=      5-min Rain = 0
KMC6 060528Z 01005KT 03/01 A3033 RMK A01 T00270012  RH  090%=      5-min Rain = 0
KMC6 060529Z 01005KT 03/01 A3033 RMK A01 T00270013  RH  090%=      5-min Rain = 0
KMC6 060530Z 01005KT 03/01 A3033 RMK A01 T00280013  RH  090%=      5-min Rain = 0
KMC6 060531Z 01004KT 03/01 A3033 RMK A01 T00280012  RH  090%=      5-min Rain = 0
KMC6 060532Z 01004KT 03/01 A3033 RMK A01 T00280013  RH  090%=      5-min Rain = 0
KMC6 060533Z 01005KT 03/01 A3033 RMK A01 T00270010  RH  088%=      5-min Rain = 0
KMC6 060534Z 01004KT 03/01 A3033 RMK A01 T00260009  RH  089%=      5-min Rain = 0
KMC6 060535Z 01005KT 03/01 A3033 RMK A01 T00260010  RH  089%=      5-min Rain = 0
KMC6 060536Z 01005KT 03/01 A3033 RMK A01 T00250009  RH  089%=      5-min Rain = 0
KMC6 060537Z 01005KT 03/01 A3032 RMK A01 T00250009  RH  089%=      5-min Rain = 0
KMC6 060538Z 02005KT 02/01 A3032 RMK A01 T00240008  RH  089%=      5-min Rain = 0
KMC6 060539Z 02005KT 02/01 A3032 RMK A01 T00230007  RH  089%=      5-min Rain = 0
KMC6 060540Z 02005KT 02/01 A3032 RMK A01 T00220007  RH  090%=      5-min Rain = 0
KMC6 060541Z 02005KT 02/01 A3032 RMK A01 T00220008  RH  090%=      5-min Rain = 0
KMC6 060542Z 02004KT 02/01 A3032 RMK A01 T00220009  RH  091%=      5-min Rain = 0
KMC6 060543Z 02004KT 02/01 A3032 RMK A01 T00220009  RH  091%=      5-min Rain = 0
KMC6 060544Z 02004KT 02/01 A3032 RMK A01 T00220007  RH  090%=      5-min Rain = 0
KMC6 060545Z 02004KT 02/01 A3032 RMK A01 T00210005  RH  089%=      5-min Rain = 0
KMC6 060546Z 01004KT 02/00 A3032 RMK A01 T00200004  RH  089%=      5-min Rain = 0
KMC6 060547Z 02005KT 02/01 A3032 RMK A01 T00200006  RH  090%=      5-min Rain = 0
KMC6 060548Z 01005KT 02/01 A3032 RMK A01 T00200006  RH  091%=      5-min Rain = 0
KMC6 060549Z 01005KT 02/01 A3032 RMK A01 T00200008  RH  092%=      5-min Rain = 0
KMC6 060550Z 01005KT 02/01 A3032 RMK A01 T00210010  RH  092%=      5-min Rain = 0
KMC6 060551Z 01004KT 02/01 A3032 RMK A01 T00210010  RH  092%=      5-min Rain = 0
KMC6 060552Z 02005KT 02/01 A3032 RMK A01 T00210009  RH  092%=      5-min Rain = 0
KMC6 060553Z 01004KT 02/01 A3032 RMK A01 T00210009  RH  092%=      5-min Rain = 0
KMC6 060554Z 01004KT 02/01 A3032 RMK A01 T00210010  RH  092%=      5-min Rain = 0
KMC6 060555Z 02004KT 02/01 A3032 RMK A01 T00220011  RH  092%=      5-min Rain = 0
KMC6 060556Z 02004KT 02/01 A3032 RMK A01 T00220010  RH  092%=      5-min Rain = 0
KMC6 060557Z 02004KT 02/01 A3032 RMK A01 T00220010  RH  092%=      5-min Rain = 0
KMC6 060558Z 02004KT 02/01 A3032 RMK A01 T00220010  RH  092%=      5-min Rain = 0
KMC6 060559Z 02004KT 02/01 A3032 RMK A01 T00220010  RH  092%=      5-min Rain = 0

Page generated in 0.1358 seconds.